Ship Status Report: callsign 000000

sailwx.info

Track history (hours):
 
Tides and Currents Weather Stations Pressure Air Temp Water Temp Dewpoint Dewpoint Depression Visibility Wind Speed Wind Dir Waves Ship Positions

Callsign 000000 (name unknown)

Last reported at 2014-Jul-31 19:31 UTC. Time now 2014-Jul-31 19:38 UTC.
Position N 32°02' E 120°24'.

Type: Fishing. MMSI: 200007452.

Date/timePositionNaut miles runAvg speedWind from/ knotsBaromVisibWave heightAir tempDewpointWater temp
2014-Jul-31 19:31N 32°02' E 120°24'0 0.0
2014-Jul-31 18:33N 32°02' E 120°24'0 0.0
2014-Jul-31 17:30N 32°02' E 120°24'0 0.0
2014-Jul-31 16:33N 32°02' E 120°24'0 0.0
2014-Jul-31 15:33N 32°02' E 120°24'65554848.6
2014-Jul-31 15:33N 22°58' E 113°33'772.7
2014-Jul-31 15:27N 22°52' E 113°34'660737.9
2014-Jul-31 14:33N 32°02' E 120°24'6588966.8
2014-Jul-31 14:29N 23°02' E 113°21'1294.9
2014-Jul-31 14:21N 22°58' E 113°33'3138.7
2014-Jul-31 14:20N 23°01' E 113°32'653837.8
2014-Jul-31 13:33N 32°02' E 120°24'65416452.9
2014-Jul-31 13:31N 23°04' E 113°26'654681.8
2014-Jul-31 12:33N 32°02' E 120°24'95531251.1
2014-Jul-31 12:32N 19°44' E 109°11'3134537.2
2014-Jul-31 12:27N 23°04' E 113°29'449.7
2014-Jul-31 12:22N 23°01' E 113°32'6638715.6
2014-Jul-31 12:18N 32°01' E 120°46'702947.1
2014-Jul-31 11:33N 22°13' E 113°35'688412762.9
2014-Jul-31 11:33N 31°58' E 120°21'5102.9
2014-Jul-31 11:30N 32°02' E 120°24'10528.1
2014-Jul-31 11:29N 31°57' E 120°14'64221015.0
2014-Jul-31 11:27N 23°04' E 113°30'419.7
2014-Jul-31 11:16N 23°01' E 113°32'2281318.6
2014-Jul-31 11:06N 23°46' E 117°35'518950.6
2014-Jul-31 10:33N 32°02' E 120°24'6460.7
2014-Jul-31 10:33N 31°59' E 120°19'51312236.5
2014-Jul-31 10:30N 23°46' E 117°35'2293219.8
2014-Jul-31 10:26N 23°04' E 113°30'451811.5
2014-Jul-31 10:24N 22°20' E 113°19'421334.4
2014-Jul-31 10:22N 23°01' E 113°32'48256.8
2014-Jul-31 10:11N 22°13' E 113°35'6831086.4
2014-Jul-31 09:33N 31°57' E 120°14'102423.8
2014-Jul-31 09:33N 32°01' E 120°25'65313272.2
2014-Jul-31 09:30N 23°01' E 113°32'65313596.8
2014-Jul-31 09:27N 32°02' E 120°24'6528626.5
2014-Jul-31 09:23N 23°04' E 113°30'51338.2
2014-Jul-31 09:14N 22°13' E 113°35'2223502.5
2014-Jul-31 09:10N 23°39' E 117°17'18292.6
2014-Jul-31 09:06N 23°46' E 117°35'520947.5
2014-Jul-31 08:33N 32°02' E 120°30'932182.9
2014-Jul-31 08:33N 31°59' E 120°20'34121161.5
2014-Jul-31 08:32N 37°26' E 122°17'101947642.0
2014-Jul-31 08:31N 22°13' E 113°35'103452441.5
2014-Jul-31 08:30N 39°05' E 117°44'44210208.3
2014-Jul-31 08:27N 32°02' E 120°24'65310692.4
2014-Jul-31 08:24N 23°01' E 113°32'2282412.2
2014-Jul-31 08:18N 23°46' E 117°35'2293270.9
2014-Jul-31 08:14N 23°04' E 113°30'656977.0
2014-Jul-31 07:34N 32°01' E 120°36'343247107.9
2014-Jul-31 07:33N 37°32' E 122°25'344309887.4
2014-Jul-31 07:33N 32°02' E 120°24'414587.2
2014-Jul-31 07:33N 31°58' E 120°24'649778768.8
2014-Jul-31 07:33N 23°04' E 113°29'986177420.1
2014-Jul-31 07:33N 39°05' E 117°44'9858289.0
2014-Jul-31 07:26N 23°04' E 113°30'513994.3
2014-Jul-31 07:25N 22°13' E 113°35'2392043.1
2014-Jul-31 07:18N 23°46' E 117°35'9191222.4
2014-Jul-31 06:33N 39°05' E 117°44'103433244.6
2014-Jul-31 06:31N 22°13' E 113°35'532406.9
2014-Jul-31 06:30N 23°05' E 113°27'65216417.8
2014-Jul-31 06:27N 32°02' E 120°24'65225504.6
2014-Jul-31 06:26N 23°04' E 113°30'2297703.5
2014-Jul-31 06:24N 23°46' E 117°35'9194335.1
2014-Jul-31 06:11N 39°05' E 117°44'5 7.4
2014-Jul-31 05:33N 39°04' E 117°50'103424652.3
2014-Jul-31 05:31N 22°13' E 113°35'532678.1
2014-Jul-31 05:30N 23°05' E 113°27'122257.1
2014-Jul-31 05:29N 22°56' E 113°34'99372945.1
2014-Jul-31 05:29N 39°05' E 117°44'44220682.4
2014-Jul-31 05:27N 32°02' E 120°24'19988.6
2014-Jul-31 05:26N 31°58' E 120°02'645580182.4
2014-Jul-31 05:26N 23°04' E 113°16'121727.7
2014-Jul-31 05:26N 23°04' E 113°29'2298011.7
2014-Jul-31 05:24N 23°46' E 117°35'8621024.3
2014-Jul-31 04:34N 37°31' E 122°25'233419818.2
2014-Jul-31 04:33N 39°03' E 117°52'987888605.1
2014-Jul-31 04:33N 23°01' E 113°31'9431.0
2014-Jul-31 04:32N 23°02' E 113°21'98877343.4
2014-Jul-31 04:31N 39°03' E 117°50'1034143112.0
2014-Jul-31 04:31N 22°13' E 113°35'3815294.9
2014-Jul-31 04:31N 22°51' E 113°34'16886.0
2014-Jul-31 04:30N 23°05' E 113°26'653213545.7
2014-Jul-31 04:30N 32°02' E 120°26'221.7
2014-Jul-31 04:24N 32°02' E 120°24'6528121.2
2014-Jul-31 04:20N 23°04' E 113°29'2298516.4
2014-Jul-31 04:18N 23°46' E 117°35'506260388.4
2014-Jul-31 04:18N 31°29' E 121°27'741059.9
2014-Jul-31 04:14N 31°58' E 120°06'346518.4
2014-Jul-31 03:34N 37°27' E 122°17'235422990.4
2014-Jul-31 03:33N 39°05' E 117°45'1495.2
2014-Jul-31 03:33N 39°04' E 117°46'991198185.3
2014-Jul-31 03:33N 22°58' E 113°32'991198140.6
2014-Jul-31 03:33N 39°03' E 117°51'986355035.1
2014-Jul-31 03:33N 23°04' E 113°25'481719.5
2014-Jul-31 03:31N 22°17' E 113°36'69415135.4
2014-Jul-31 03:28N 31°27' E 121°30'664946.2
2014-Jul-31 03:27N 32°02' E 120°24'652123556.3
2014-Jul-31 03:27N 23°06' E 113°26'2324460.1
2014-Jul-31 03:24N 23°46' E 117°35'9181088.1
2014-Jul-31 02:33N 39°04' E 117°51'621582.9
2014-Jul-31 02:33N 39°05' E 117°44'984221508.7
2014-Jul-31 02:33N 23°06' E 113°26'984126567.1
2014-Jul-31 02:33N 39°05' E 117°45'99515718.0
2014-Jul-31 02:29N 22°54' E 113°30'6618973.1
2014-Jul-31 02:24N 32°02' E 120°24'5184869.7
2014-Jul-31 02:18N 23°46' E 117°35'9181238.7
2014-Jul-31 01:34N 39°04' E 117°48'1188.9
2014-Jul-31 01:33N 39°04' E 117°48'984208372.5
2014-Jul-31 01:33N 23°06' E 113°26'493095.8
2014-Jul-31 01:32N 22°24' E 113°54'100238793.9
2014-Jul-31 01:31N 37°26' E 122°16'85576962.6
2014-Jul-31 01:30N 23°46' E 117°35'51812351.8
2014-Jul-31 01:27N 32°02' E 120°24'68249.3
2014-Jul-31 01:11N 31°25' E 121°31'493788.8
2014-Jul-31 00:33N 39°04' E 117°51'494254269.8
2014-Jul-31 00:33N 31°23' E 121°30'5028481.5
2014-Jul-31 00:30N 23°46' E 117°35'2325085.6
2014-Jul-31 00:27N 23°06' E 113°26'65214858.4
2014-Jul-31 00:24N 32°02' E 120°24'652761.5
2014-Jul-30 23:33N 23°06' E 113°26'6526844.0
2014-Jul-30 23:27N 32°02' E 120°24'6612862.6
2014-Jul-30 23:13N 22°51' E 113°34'1620.9
2014-Jul-30 22:28N 23°05' E 113°27'65210388.0
2014-Jul-30 22:24N 32°02' E 120°24'10260.2
2014-Jul-30 22:22N 31°57' E 120°14'6514821.3
2014-Jul-30 22:14N 22°54' E 113°29'6125436.0
2014-Jul-30 22:07N 29°39' E 121°60'164292.6
2014-Jul-30 21:33N 31°58' E 120°19'6467247.3
2014-Jul-30 21:28N 23°05' E 113°27'65257263.5
2014-Jul-30 21:27N 32°02' E 120°24'170983.5
2014-Jul-30 21:17N 29°37' E 122°05'168229.5
2014-Jul-30 20:33N 32°00' E 120°24'215.4
2014-Jul-30 20:24N 32°02' E 120°24'65217652.8
2014-Jul-30 20:22N 23°05' E 113°27'1681.4
2014-Jul-30 20:10N 22°51' E 113°34'6631060.2
2014-Jul-30 19:33N 32°02' E 120°29'6558183.3
2014-Jul-30 19:28N 23°05' E 113°27'65247912.5
2014-Jul-30 19:27N 32°02' E 120°24'6618346.6
2014-Jul-30 19:23N 22°51' E 113°34'2401280.4
2014-Jul-30 19:11N 23°54' E 117°47'243337.8
2014-Jul-30 18:28N 23°05' E 113°27'65249953.7
2014-Jul-30 18:27N 32°02' E 120°24'5133948.0
2014-Jul-30 18:20N 23°50' E 117°40'513589.9
2014-Jul-30 17:27N 32°02' E 120°24'6527524.7
2014-Jul-30 17:22N 23°05' E 113°27'0 0.0
2014-Jul-30 16:28N 23°05' E 113°27'6521580.0
2014-Jul-30 16:03N 32°02' E 120°24'6511106.5
2014-Jul-30 15:28N 23°05' E 113°29'65110608.9
2014-Jul-30 15:24N 32°02' E 120°24'518541.7
2014-Jul-30 14:27N 23°46' E 117°35'2301259.7
2014-Jul-30 14:16N 23°05' E 113°29'65110854.5
2014-Jul-30 14:12N 32°02' E 120°24'657970.9
2014-Jul-30 13:32N 23°02' E 113°23'650259961.0
2014-Jul-30 13:32N 31°58' E 120°18'799.8
2014-Jul-30 13:27N 32°02' E 120°24'6899688.4
2014-Jul-30 13:23N 22°17' E 113°35'482748.9
2014-Jul-30 13:22N 23°05' E 113°29'5264.0
2014-Jul-30 12:33N 22°13' E 113°35'688112507.9
2014-Jul-30 12:33N 31°59' E 120°20'535.0
2014-Jul-30 12:24N 32°02' E 120°24'65128595.4
2014-Jul-30 12:23N 23°05' E 113°29'6564362.3
2014-Jul-30 12:14N 31°22' E 121°30'545799.5
2014-Jul-30 11:33N 23°17' E 116°48'19185926.6
2014-Jul-30 11:33N 23°02' E 113°21'6561180201.0
2014-Jul-30 11:33N 32°01' E 120°23'7314602.2
2014-Jul-30 11:33N 31°19' E 121°34'661108179.6
2014-Jul-30 11:32N 23°02' E 113°24'2343458.6
2014-Jul-30 11:28N 23°46' E 117°35'2316612.7
2014-Jul-30 11:26N 23°05' E 113°27'6523662.6
2014-Jul-30 11:15N 32°02' E 120°24'4422394.8
2014-Jul-30 11:04N 39°05' E 117°44'2 3.3
2014-Jul-30 10:33N 39°05' E 117°46'44188274.6
2014-Jul-30 10:33N 32°03' E 120°26'726330.9
2014-Jul-30 10:32N 31°19' E 121°34'657181904.6
2014-Jul-30 10:32N 23°05' E 113°27'171.2
2014-Jul-30 10:31N 23°05' E 113°26'2324467.1
2014-Jul-30 10:28N 23°46' E 117°35'5195117.8
2014-Jul-30 10:22N 32°02' E 120°30'65920804.9
2014-Jul-30 10:20N 23°02' E 113°24'6568175.9
2014-Jul-30 10:15N 32°02' E 120°24'66121430.7
2014-Jul-30 10:13N 22°51' E 113°34'1692372.4
2014-Jul-30 10:09N 23°21' E 116°35'9451585.1
2014-Jul-30 09:33N 39°05' E 117°47'986591401.4
2014-Jul-30 09:33N 23°04' E 113°30'65694534.5
2014-Jul-30 09:33N 31°20' E 121°33'65745494.9
2014-Jul-30 09:32N 23°05' E 113°27'6528325.0
2014-Jul-30 09:27N 32°02' E 120°24'9637.4
2014-Jul-30 09:26N 32°01' E 120°35'6616276.1
2014-Jul-30 09:20N 23°02' E 113°24'6 7.1
2014-Jul-30 08:33N 23°04' E 113°30'6571181790.8
2014-Jul-30 08:33N 31°23' E 121°30'49785117.7
2014-Jul-30 08:33N 39°05' E 117°47'98565638.0
2014-Jul-30 08:32N 23°05' E 113°27'65720928.0
2014-Jul-30 08:30N 32°01' E 120°36'10213.8
2014-Jul-30 08:27N 32°02' E 120°24'6618091.4
2014-Jul-30 08:22N 22°51' E 113°34'2281098.8
2014-Jul-30 08:10N 23°46' E 117°35'501818.4
2014-Jul-30 07:33N 31°21' E 121°31'496446686.4
2014-Jul-30 07:33N 39°04' E 117°50'49293211.9
2014-Jul-30 07:33N 31°26' E 121°30'659139456.3
2014-Jul-30 07:33N 23°04' E 113°30'3292.1
2014-Jul-30 07:32N 23°05' E 113°27'6528384.4
2014-Jul-30 07:27N 32°02' E 120°24'51810478.0
2014-Jul-30 07:24N 23°46' E 117°35'230271.2
2014-Jul-30 06:33N 23°05' E 113°28'2153.0
2014-Jul-30 06:33N 23°04' E 113°30'175.7
2014-Jul-30 06:32N 23°04' E 113°29'52021.8
2014-Jul-30 06:32N 23°02' E 113°24'663170579.9
2014-Jul-30 06:32N 31°28' E 121°27'63858.5
2014-Jul-30 06:27N 32°02' E 120°24'5182049.5
2014-Jul-30 06:12N 23°46' E 117°35'518797.7
2014-Jul-30 05:33N 32°02' E 120°24'652123561.5
2014-Jul-30 05:33N 23°04' E 113°29'070.3
2014-Jul-30 05:33N 23°04' E 113°30'6586134.9
2014-Jul-30 05:26N 31°28' E 121°25'658746.6
2014-Jul-30 04:33N 23°04' E 113°30'827185.5
2014-Jul-30 04:33N 22°57' E 113°33'65613053.3
2014-Jul-30 04:30N 32°02' E 120°24'625055.7
2014-Jul-30 04:30N 31°28' E 121°25'952.2
2014-Jul-30 04:19N 31°21' E 121°31'5004362.3
2014-Jul-30 04:12N 23°46' E 117°35'230353.9
2014-Jul-30 03:33N 22°53' E 113°31'51787.2
2014-Jul-30 03:33N 22°49' E 113°36'1614073.2
2014-Jul-30 03:33N 23°04' E 113°30'652469264.5
2014-Jul-30 03:33N 32°02' E 120°24'6564025.1
2014-Jul-30 03:23N 23°02' E 113°24'5 6.1
2014-Jul-30 02:33N 23°04' E 113°29'65654928.4
2014-Jul-30 02:33N 31°21' E 121°31'660216066.6
2014-Jul-30 02:32N 23°02' E 113°24'2346432.0
2014-Jul-30 02:30N 23°46' E 117°35'511108284.1
2014-Jul-30 02:30N 31°57' E 120°18'6575096.9
2014-Jul-30 02:22N 22°54' E 113°21'1215.3
2014-Jul-30 01:33N 23°04' E 113°29'98641256.8
2014-Jul-30 01:32N 39°05' E 117°44'98590959.7
2014-Jul-30 01:31N 23°04' E 113°29'1268.6
2014-Jul-30 01:21N 22°53' E 113°31'2304626.0
2014-Jul-30 01:18N 23°46' E 117°35'2102485.3
2014-Jul-30 01:13N 22°19' E 114°08'10231534.7
2014-Jul-30 00:33N 39°04' E 117°47'98556300.6
2014-Jul-30 00:32N 23°04' E 113°29'055.2
2014-Jul-30 00:32N 23°04' E 113°29'2309499.1
2014-Jul-30 00:30N 23°46' E 117°35'918970.9
2014-Jul-29 23:33N 39°04' E 117°48'985709415.6
2014-Jul-29 23:33N 23°04' E 113°29'451690.5
2014-Jul-29 23:32N 22°25' E 113°54'4518186.7
2014-Jul-29 23:32N 23°04' E 113°29'6566298.0
2014-Jul-29 23:25N 31°21' E 121°31'6712184.9
2014-Jul-29 23:07N 22°19' E 114°08'21015419.1
2014-Jul-29 23:06N 23°46' E 117°35'229420.2
2014-Jul-29 22:33N 23°04' E 113°29'986709677.3
2014-Jul-29 22:33N 39°05' E 117°47'98538146.0
2014-Jul-29 22:32N 23°04' E 113°29'58957.9
2014-Jul-29 22:28N 22°19' E 114°08'67455124.1
2014-Jul-29 22:27N 31°24' E 121°31'50411121.5
2014-Jul-29 22:25N 23°46' E 117°35'229268.1
2014-Jul-29 21:33N 23°04' E 113°29'22618945.7
2014-Jul-29 21:33N 23°40' E 117°33'22713152.6
2014-Jul-29 21:32N 23°04' E 113°29'584859.6
2014-Jul-29 21:31N 22°19' E 114°08'5860.1
2014-Jul-29 20:33N 23°04' E 113°29'22118497.4
2014-Jul-29 20:33N 23°36' E 117°27'19929894.1
2014-Jul-29 20:32N 22°19' E 114°08'585358.0
2014-Jul-29 20:32N 23°04' E 113°29'0 0.4
2014-Jul-29 19:33N 23°04' E 113°29'013.4
2014-Jul-29 19:32N 23°04' E 113°29'6585346.9
2014-Jul-29 19:24N 31°28' E 121°25'658776.5
2014-Jul-29 18:33N 23°04' E 113°29'58487.7
2014-Jul-29 18:26N 22°19' E 114°08'58950.8
2014-Jul-29 18:23N 23°04' E 113°29'6589748.3
2014-Jul-29 18:19N 31°28' E 121°25'658867.1
2014-Jul-29 17:33N 23°04' E 113°29'63995867.9
2014-Jul-29 17:33N 32°03' E 119°57'63937712.7
2014-Jul-29 17:32N 23°04' E 113°29'0 0.4
2014-Jul-29 16:33N 23°04' E 113°29'63734734.6
2014-Jul-29 16:32N 31°60' E 119°57'63765489.6
2014-Jul-29 16:32N 23°04' E 113°29'58528.1
2014-Jul-29 16:25N 22°19' E 114°08'6767414.4
2014-Jul-29 16:20N 31°31' E 121°25'57277.8
2014-Jul-29 16:07N 31°59' E 120°27'582111.8
2014-Jul-29 16:06N 31°28' E 121°25'3 5.9
2014-Jul-29 15:33N 31°27' E 121°28'6429011.7
2014-Jul-29 15:33N 31°58' E 120°22'651156340.0
2014-Jul-29 15:33N 22°58' E 113°30'6253.8
2014-Jul-29 15:32N 23°04' E 113°29'18610629.1
2014-Jul-29 15:31N 23°17' E 116°51'5482602.2
2014-Jul-29 15:18N 31°28' E 121°25'548736.8
2014-Jul-29 14:33N 23°21' E 116°44'18293441.5
2014-Jul-29 14:33N 22°54' E 113°28'3919938.0
2014-Jul-29 14:33N 22°24' E 113°54'66033953.8
2014-Jul-29 14:32N 31°59' E 119°57'636127284.6
2014-Jul-29 14:32N 23°04' E 113°29'640115202.6
2014-Jul-29 14:31N 31°56' E 120°11'68168.8
2014-Jul-29 14:07N 31°28' E 121°25'550971.5
2014-Jul-29 13:33N 23°23' E 116°34'54793850.0
2014-Jul-29 13:33N 31°59' E 119°57'63640912.9
2014-Jul-29 13:32N 23°04' E 113°29'6585560.6
2014-Jul-29 13:25N 31°28' E 121°25'0 0.0
2014-Jul-29 12:33N 31°28' E 121°25'811058.2
2014-Jul-29 12:28N 31°59' E 119°57'6366621.8
2014-Jul-29 12:23N 23°04' E 113°29'1 1.0
2014-Jul-29 11:33N 23°05' E 113°28'65887765.8
2014-Jul-29 11:33N 31°28' E 121°25'81623.5
2014-Jul-29 11:25N 31°59' E 119°57'439512.6
2014-Jul-29 10:33N 39°05' E 117°45'94411215.2
2014-Jul-29 10:28N 23°23' E 116°34'5473177.3
2014-Jul-29 10:18N 31°59' E 119°57'3039.9
2014-Jul-29 09:33N 32°01' E 120°33'44293662.4
2014-Jul-29 09:33N 39°03' E 117°52'94565412.4
2014-Jul-29 09:32N 23°21' E 116°39'9466354.3
2014-Jul-29 09:23N 39°05' E 117°44'0 0.1
2014-Jul-29 09:16N 39°05' E 117°44'3 3.6
2014-Jul-29 08:33N 39°04' E 117°47'947681964.2
2014-Jul-29 08:33N 23°19' E 116°46'947487109.7
2014-Jul-29 08:33N 39°04' E 117°47'31150.8
2014-Jul-29 08:33N 39°04' E 117°50'441176311.2
2014-Jul-29 08:33N 32°02' E 120°27'440444.1
2014-Jul-29 07:33N 39°03' E 117°50'413955.6
2014-Jul-29 07:33N 39°05' E 117°46'439315872.0
2014-Jul-29 07:33N 31°59' E 119°57'224088.6
2014-Jul-29 07:33N 31°60' E 120°23'693421.1
2014-Jul-29 07:32N 31°21' E 121°31'918.8
2014-Jul-29 07:04N 31°28' E 121°25'80158.7
2014-Jul-29 06:33N 31°59' E 119°57'43979098.5
2014-Jul-29 06:33N 39°05' E 117°44'44440986.5
2014-Jul-29 06:32N 31°57' E 120°09'585.5
2014-Jul-29 06:29N 31°56' E 120°15'6727013.1
2014-Jul-29 06:23N 22°17' E 113°50'10271243.7
2014-Jul-29 05:33N 39°04' E 117°51'443199135.3
2014-Jul-29 05:33N 31°57' E 120°13'645193390.3
2014-Jul-29 05:33N 23°03' E 113°25'5327208.5
2014-Jul-29 05:33N 22°14' E 113°45'6774377.6
2014-Jul-29 05:24N 31°57' E 120°12'3122982.8
2014-Jul-29 05:17N 26°46' E 119°43'314428.6
2014-Jul-29 04:34N 31°58' E 120°18'441529557.9
2014-Jul-29 04:33N 39°03' E 117°51'44231188.3
2014-Jul-29 04:33N 31°57' E 120°12'68411302.7
2014-Jul-29 04:29N 22°10' E 113°35'69180221.4
2014-Jul-29 04:28N 31°15' E 121°31'8232.8
2014-Jul-29 04:26N 31°23' E 121°32'8121.9
2014-Jul-29 04:22N 31°28' E 121°25'1215.1
2014-Jul-29 03:33N 31°18' E 121°33'7317520.0
2014-Jul-29 03:33N 31°60' E 120°23'44476178.5
2014-Jul-29 03:33N 39°05' E 117°44'4459774.6
2014-Jul-29 03:30N 31°57' E 120°12'78805.7
2014-Jul-29 03:24N 31°20' E 121°33'11135.2
2014-Jul-29 03:19N 31°28' E 121°25'488640.0
2014-Jul-29 02:33N 39°04' E 117°49'1018166535.9
2014-Jul-29 02:33N 22°26' E 113°53'673201975.9
2014-Jul-29 02:33N 32°02' E 120°26'124951.6
2014-Jul-29 02:33N 31°57' E 120°13'751756.1
2014-Jul-29 02:30N 31°21' E 121°31'6642498.7
2014-Jul-29 02:14N 22°54' E 113°28'666981.5
2014-Jul-29 01:34N 31°23' E 121°30'494592617.3
2014-Jul-29 01:33N 39°04' E 117°51'443199218.9
2014-Jul-29 01:33N 31°57' E 120°15'1577.8
2014-Jul-29 01:22N 32°02' E 120°32'635694.4
2014-Jul-29 01:21N 31°24' E 121°31'66428801.7
2014-Jul-29 01:20N 22°56' E 113°30'663856.1
2014-Jul-29 00:33N 32°01' E 120°36'1552883.4
2014-Jul-29 00:33N 31°59' E 120°19'661635.3
2014-Jul-29 00:31N 31°27' E 121°27'6608665.5
2014-Jul-29 00:26N 23°02' E 113°31'6382433.8
2014-Jul-29 00:11N 31°59' E 119°57'2133.3
2014-Jul-28 23:33N 32°00' E 120°22'64938302.2
2014-Jul-28 23:32N 23°04' E 113°29'660791773.9
2014-Jul-28 23:32N 31°58' E 120°47'51966695.3
2014-Jul-28 23:32N 23°45' E 117°44'52020565.8
2014-Jul-28 23:30N 32°00' E 120°41'37605.6
2014-Jul-28 23:27N 31°59' E 119°57'321458.8
2014-Jul-28 23:25N 31°60' E 120°35'65611.2
2014-Jul-28 23:19N 31°15' E 121°30'6179.8
2014-Jul-28 22:33N 31°60' E 120°41'132186.5
2014-Jul-28 22:33N 32°01' E 120°25'652234637.2
2014-Jul-28 22:32N 23°04' E 113°29'6545562.9
2014-Jul-28 22:25N 32°02' E 120°28'6743766.5
2014-Jul-28 22:15N 22°27' E 113°53'682988.5
2014-Jul-28 21:33N 31°59' E 120°51'2313552.4
2014-Jul-28 21:33N 32°00' E 120°24'517630.4
2014-Jul-28 21:33N 32°02' E 120°29'41082.1
2014-Jul-28 21:33N 32°01' E 120°33'65511286.5
2014-Jul-28 21:29N 23°04' E 113°29'6365713.8
2014-Jul-28 21:23N 31°59' E 119°57'3137.1
2014-Jul-28 20:33N 32°01' E 120°34'6563239.3
2014-Jul-28 20:20N 23°04' E 113°29'0 0.0
2014-Jul-28 19:32N 23°04' E 113°29'658124729.4
2014-Jul-28 19:32N 32°00' E 120°40'36282.4
2014-Jul-28 19:24N 31°59' E 119°57'0 0.0
2014-Jul-28 18:32N 31°59' E 119°57'421188.6
2014-Jul-28 18:30N 31°57' E 120°47'66053975.6
2014-Jul-28 18:29N 23°04' E 113°29'636675.1
2014-Jul-28 17:33N 31°59' E 119°57'63688125.3
2014-Jul-28 17:32N 23°04' E 113°29'636636.5
2014-Jul-28 16:32N 31°59' E 119°57'89322.0
2014-Jul-28 16:16N 31°21' E 121°32'656907.5
2014-Jul-28 15:32N 23°04' E 113°29'66062488.5
2014-Jul-28 15:32N 31°23' E 121°34'906470.0
2014-Jul-28 15:31N 31°59' E 119°57'645669.9
2014-Jul-28 14:33N 22°54' E 113°28'3857489.9
2014-Jul-28 14:30N 26°08' E 119°34'33516763.4
2014-Jul-28 14:29N 31°28' E 121°28'66013491.8
2014-Jul-28 14:26N 23°04' E 113°29'6361713.7
2014-Jul-28 14:04N 31°59' E 119°57'6421222.3
2014-Jul-28 13:32N 22°57' E 113°30'66479738.9
2014-Jul-28 13:32N 31°25' E 121°32'6607003.9
2014-Jul-28 13:26N 23°04' E 113°29'655745.8
2014-Jul-28 12:33N 31°22' E 121°28'6730185.2
2014-Jul-28 12:33N 31°59' E 120°22'648777834.7
2014-Jul-28 12:33N 23°04' E 113°30'3372.5
2014-Jul-28 12:33N 23°05' E 113°26'442932.1
2014-Jul-28 12:32N 22°21' E 113°18'4445.3
2014-Jul-28 11:34N 23°04' E 113°30'662183356.6
2014-Jul-28 11:33N 32°00' E 120°48'241872.5
2014-Jul-28 11:33N 31°59' E 120°20'44421911.1
2014-Jul-28 11:31N 39°05' E 117°44'98927589.6
2014-Jul-28 11:29N 23°02' E 113°24'6 6.0
2014-Jul-28 10:34N 23°04' E 113°30'9861182796.6
2014-Jul-28 10:33N 39°05' E 117°46'858134336.9
2014-Jul-28 10:33N 24°49' E 118°58'32421194.1
2014-Jul-28 10:32N 23°02' E 113°24'3896.0
2014-Jul-28 10:08N 22°24' E 113°19'69212086.6
2014-Jul-28 10:05N 32°02' E 120°27'6531241.9
2014-Jul-28 09:33N 23°04' E 113°30'625.1
2014-Jul-28 09:20N 23°02' E 113°24'64423432.5
2014-Jul-28 09:19N 31°57' E 120°10'640852.5
2014-Jul-28 08:33N 23°04' E 113°30'64240545.5
2014-Jul-28 08:33N 31°57' E 120°14'647101198.6
2014-Jul-28 08:32N 23°02' E 113°24'65869692.6
2014-Jul-28 08:32N 31°21' E 121°27'49910197.8
2014-Jul-28 08:29N 39°05' E 117°44'443481.5
2014-Jul-28 07:33N 32°02' E 120°26'44054651.0
2014-Jul-28 07:33N 39°03' E 117°50'9853545249.4
2014-Jul-28 07:33N 23°04' E 113°30'6544046.7
2014-Jul-28 07:23N 31°21' E 121°27'65912966.4
2014-Jul-28 07:20N 23°02' E 113°24'6 7.1
2014-Jul-28 06:33N 23°04' E 113°30'985709225.9
2014-Jul-28 06:33N 39°03' E 117°51'49548135.3
2014-Jul-28 06:33N 31°21' E 121°27'69388.0
2014-Jul-28 06:22N 31°57' E 120°18'6498286.5
2014-Jul-28 06:17N 23°02' E 113°24'6573430.4
2014-Jul-28 06:06N 32°02' E 120°27'6531209.0
2014-Jul-28 05:33N 23°04' E 113°30'985161220.8
2014-Jul-28 05:33N 39°04' E 117°47'98880870.1
2014-Jul-28 05:32N 23°02' E 113°24'65941628.9
2014-Jul-28 05:31N 31°21' E 121°27'67443.2
2014-Jul-28 05:22N 31°60' E 120°23'12251.8
2014-Jul-28 05:19N 31°56' E 120°10'639832.3
2014-Jul-28 04:33N 23°04' E 113°30'6303.3
2014-Jul-28 04:32N 23°02' E 113°24'65921376.7
2014-Jul-28 04:30N 31°21' E 121°27'71586.4
2014-Jul-28 04:23N 31°56' E 120°14'6503306.9
2014-Jul-28 04:11N 22°51' E 113°34'21214.2
2014-Jul-28 04:05N 23°04' E 113°16'1323.5
2014-Jul-28 03:33N 23°04' E 113°30'654147198.0
2014-Jul-28 03:32N 31°21' E 121°27'66028981.6
2014-Jul-28 03:31N 23°02' E 113°22'262.9
2014-Jul-28 03:29N 23°02' E 113°24'9881062.9
2014-Jul-28 02:33N 39°04' E 117°48'985443269.8
2014-Jul-28 02:33N 23°04' E 113°30'9902.2
2014-Jul-28 02:33N 23°03' E 113°20'661594731.7
2014-Jul-28 02:33N 31°21' E 121°27'65911688.7
2014-Jul-28 02:29N 23°02' E 113°24'9881065.4
2014-Jul-28 01:34N 39°04' E 117°50'495594078.7
2014-Jul-28 01:33N 31°21' E 121°27'654196264.0
2014-Jul-28 01:33N 23°04' E 113°30'6303.5
2014-Jul-28 01:32N 23°02' E 113°24'64516025.5
2014-Jul-28 01:30N 31°57' E 120°12'1276.4
2014-Jul-28 01:20N 31°59' E 119°58'637814.1
2014-Jul-28 00:33N 23°04' E 113°29'655235626.5
2014-Jul-28 00:33N 31°21' E 121°27'855304.5
2014-Jul-28 00:32N 31°59' E 119°58'64054843.1
2014-Jul-28 00:31N 23°03' E 113°25'6453189.5
2014-Jul-28 00:19N 31°55' E 120°15'642836.1
2014-Jul-27 23:33N 23°04' E 113°29'65526474.7
2014-Jul-27 23:32N 31°21' E 121°27'41587979.0
2014-Jul-27 23:31N 24°45' E 119°05'324333.4
2014-Jul-27 22:33N 23°04' E 113°29'65518265.6
2014-Jul-27 22:31N 31°21' E 121°27'4204509.5
2014-Jul-27 22:26N 24°42' E 119°01'4381875.2
2014-Jul-27 22:11N 31°55' E 120°15'6421006.6
2014-Jul-27 21:33N 23°04' E 113°29'64126234.5
2014-Jul-27 21:32N 31°56' E 120°14'7110712.3
2014-Jul-27 21:31N 31°21' E 121°27'0 0.0
2014-Jul-27 20:33N 31°21' E 121°27'655196355.4
2014-Jul-27 20:33N 23°04' E 113°29'6836155762.8
2014-Jul-27 20:31N 33°28' W 117°42'61651849480.5
2014-Jul-27 20:30N 31°56' E 120°14'641673.1
2014-Jul-27 19:33N 23°04' E 113°29'655196353.9
2014-Jul-27 19:33N 31°21' E 121°27'714285.1
2014-Jul-27 19:32N 31°56' E 120°14'15275.2
2014-Jul-27 19:29N 31°60' E 119°57'618234773.9
2014-Jul-27 19:18N 33°11' W 117°46'655855680.7
2014-Jul-27 19:11N 23°55' E 118°15'478758.9
2014-Jul-27 18:33N 31°21' E 121°27'655294542.3
2014-Jul-27 18:33N 23°04' E 113°29'64151304.6
2014-Jul-27 18:32N 31°56' E 120°14'48976468.0
2014-Jul-27 18:32N 23°58' E 118°17'655557699.9
2014-Jul-27 18:25N 32°57' W 117°52'618551779.8
2014-Jul-27 18:18N 31°60' E 119°57'61918287.9
2014-Jul-27 17:33N 32°52' W 117°48'6846560116.7
2014-Jul-27 17:33N 23°04' E 113°29'65562063.0
2014-Jul-27 17:32N 31°22' E 121°28'726990.7
2014-Jul-27 17:31N 31°56' E 120°14'15262.7
2014-Jul-27 17:28N 31°60' E 119°57'637691.3
2014-Jul-27 16:33N 23°04' E 113°29'641115432.6
2014-Jul-27 16:32N 31°56' E 120°14'731853.6
2014-Jul-27 16:30N 31°24' E 121°31'87793.3
2014-Jul-27 16:23N 31°60' E 119°57'619141351.6
2014-Jul-27 16:14N 32°50' W 117°49'61338880.7
2014-Jul-27 15:33N 31°24' E 121°31'7252151.5
2014-Jul-27 15:33N 31°56' E 120°14'641230863.5
2014-Jul-27 15:33N 23°04' E 113°29'6839279762.7
2014-Jul-27 15:31N 32°50' W 117°58'6184654769.7
2014-Jul-27 15:31N 31°60' E 119°57'5413423647.6
2014-Jul-27 15:30N 49°22' W 123°18'5860753427.9
2014-Jul-27 15:30N 24°24' E 118°39'298318.7
2014-Jul-27 14:33N 23°04' E 113°26'64372318.4
2014-Jul-27 14:33N 31°56' E 120°14'1552281.1
2014-Jul-27 14:33N 31°60' E 119°57'5407926977.2
2014-Jul-27 14:33N 49°27' W 123°23'5368153357.2
2014-Jul-27 14:30N 31°24' E 121°31'61193.0
2014-Jul-27 14:11N 32°01' E 120°33'1726.3
2014-Jul-27 13:33N 31°56' E 120°14'6153738383.8
2014-Jul-27 13:32N 32°47' W 118°22'6106457947.3
2014-Jul-27 13:32N 31°24' E 121°31'872978.4
2014-Jul-27 13:30N 31°60' E 119°57'26893.3
2014-Jul-27 13:28N 32°02' E 120°28'17517464.8
2014-Jul-27 13:28N 34°49' E 119°26'228560.2
2014-Jul-27 13:03N 31°26' E 121°30'1 2.9
2014-Jul-27 12:33N 31°26' E 121°28'225811215.2
2014-Jul-27 12:33N 34°48' E 119°29'17737461.8
2014-Jul-27 12:33N 31°56' E 120°14'733909.4
2014-Jul-27 12:32N 31°25' E 121°31'87482.9
2014-Jul-27 12:21N 31°60' E 119°57'476598.0
2014-Jul-27 11:34N 24°12' E 118°21'4602885.8
2014-Jul-27 11:24N 31°21' E 121°27'465545.5
2014-Jul-27 10:33N 24°08' E 118°17'4654596.7
2014-Jul-27 10:27N 31°21' E 121°27'469528.3
2014-Jul-27 09:34N 24°05' E 118°13'4694049.3
2014-Jul-27 09:27N 31°21' E 121°27'473531.6
2014-Jul-27 08:33N 24°02' E 118°10'48518765.1
2014-Jul-27 08:32N 31°55' E 120°08'75783.2
2014-Jul-27 08:26N 31°21' E 121°27'49829411.2
2014-Jul-27 08:25N 39°05' E 117°44'1 9.8
2014-Jul-27 08:20N 39°05' E 117°45'1 1.3
2014-Jul-27 07:34N 39°05' E 117°46'4610.3
2014-Jul-27 07:33N 39°03' E 117°51'494118659.8
2014-Jul-27 07:33N 31°21' E 121°27'49840774.7
2014-Jul-27 07:32N 39°05' E 117°44'90611097.9
2014-Jul-27 07:27N 23°59' E 118°07'9061011.7
2014-Jul-27 06:34N 39°05' E 117°47'41037.9
2014-Jul-27 06:33N 39°03' E 117°51'494118604.8
2014-Jul-27 06:33N 31°21' E 121°27'65487218.5
2014-Jul-27 06:33N 23°04' E 113°29'98517303.7
2014-Jul-27 06:29N 39°05' E 117°44'44550114.9
2014-Jul-27 06:29N 31°56' E 120°09'44525455.2
2014-Jul-27 06:28N 39°05' E 117°44'9093023.8
2014-Jul-27 06:10N 23°56' E 118°04'9091512.3
2014-Jul-27 05:33N 39°05' E 117°46'159.8
2014-Jul-27 05:32N 39°05' E 117°44'0 0.0
2014-Jul-27 05:31N 39°05' E 117°44'44249674.1
2014-Jul-27 05:31N 31°58' E 120°01'83561.9
2014-Jul-27 05:22N 31°23' E 121°30'6639012.1
2014-Jul-27 05:17N 23°03' E 113°19'9891356.9
2014-Jul-27 04:34N 39°05' E 117°47'1429.5
2014-Jul-27 04:33N 39°05' E 117°46'98932357.5
2014-Jul-27 04:32N 23°02' E 113°24'988711690.7
2014-Jul-27 04:31N 39°04' E 117°48'4972842.0
2014-Jul-27 04:21N 31°21' E 121°27'86684.0
2014-Jul-27 04:14N 31°60' E 119°57'439657.8
2014-Jul-27 03:33N 39°05' E 117°45'986506971.7
2014-Jul-27 03:33N 23°04' E 113°30'986394432.9
2014-Jul-27 03:33N 39°05' E 117°46'010.8
2014-Jul-27 03:33N 39°05' E 117°46'9873552759.1
2014-Jul-27 03:33N 23°04' E 113°25'65794596.6
2014-Jul-27 03:33N 31°21' E 121°27'49833850.3
2014-Jul-27 03:32N 39°05' E 117°44'43915202.7
2014-Jul-27 03:30N 31°60' E 119°57'63669432.1
2014-Jul-27 03:30N 23°04' E 113°29'681677403.7
2014-Jul-27 03:24N 32°49' W 118°24'655543139.3
2014-Jul-27 03:15N 23°50' E 117°55'9131314.7
2014-Jul-27 02:33N 39°03' E 117°51'43489.2
2014-Jul-27 02:33N 39°04' E 117°47'9921785385.0
2014-Jul-27 02:33N 22°57' E 113°33'68174908395.3
2014-Jul-27 02:33N 32°49' W 118°24'65582951231.9
2014-Jul-27 02:33N 23°47' E 117°53'917825038.2
2014-Jul-27 02:33N 39°04' E 117°47'49681236.0
2014-Jul-27 02:33N 31°21' E 121°27'498448227.5
2014-Jul-27 02:33N 39°05' E 117°44'44917003.4
2014-Jul-27 02:31N 31°60' E 120°41'65826329.8
2014-Jul-27 02:30N 23°04' E 113°29'0 4.3
2014-Jul-27 02:24N 23°04' E 113°29'241287.1
2014-Jul-27 01:34N 23°44' E 117°48'9201103474.9
2014-Jul-27 01:33N 39°04' E 117°51'1460.9
2014-Jul-27 01:33N 39°04' E 117°51'54589.4
2014-Jul-27 01:33N 39°05' E 117°45'4461604229.1
2014-Jul-27 01:33N 32°01' E 120°33'44659487.8
2014-Jul-27 01:33N 39°05' E 117°44'98610051.3
2014-Jul-27 01:27N 23°04' E 113°29'681627882.8
2014-Jul-27 01:12N 32°49' W 118°24'610855811.9
2014-Jul-27 01:06N 31°21' E 121°27'654214085.4
2014-Jul-27 01:06N 23°04' E 113°29'6521219.1
2014-Jul-27 00:33N 32°01' E 120°26'61377364810.6
2014-Jul-27 00:33N 32°49' W 118°24'60267231691.8
2014-Jul-27 00:33N 39°05' E 117°46'1490.8
2014-Jul-27 00:33N 39°04' E 117°47'444798391.7
2014-Jul-27 00:33N 31°58' E 120°17'7013206.4
2014-Jul-27 00:33N 31°21' E 121°27'501601234.2
2014-Jul-27 00:33N 23°41' E 117°44'23750251.4
2014-Jul-27 00:33N 23°04' E 113°29'0 2.9
2014-Jul-27 00:24N 23°04' E 113°29'649771.8
2014-Jul-26 23:33N 31°60' E 120°22'64943253.3
2014-Jul-26 23:33N 23°04' E 113°29'64651690.6
2014-Jul-26 23:32N 31°58' E 120°20'6150738013.8
2014-Jul-26 23:31N 32°50' W 118°17'6822153490.9
2014-Jul-26 23:29N 23°04' E 113°29'12129.1
2014-Jul-26 23:23N 22°52' E 113°33'2327580.4
2014-Jul-26 23:21N 23°37' E 117°40'5172840.3
2014-Jul-26 23:10N 31°60' E 119°57'2540.8
2014-Jul-26 22:34N 32°02' E 120°27'529951577.2
2014-Jul-26 22:34N 23°35' E 117°37'519169915.7
2014-Jul-26 22:33N 31°56' E 120°13'650137687.0
2014-Jul-26 22:33N 22°55' E 113°27'68341892550.0
2014-Jul-26 22:33N 32°55' W 118°09'68261445527.2
2014-Jul-26 22:33N 23°04' E 113°29'6365279.5
2014-Jul-26 22:25N 31°60' E 119°57'64613916.6
2014-Jul-26 22:23N 22°55' E 113°27'515128.9
2014-Jul-26 22:22N 22°19' E 114°07'57221.9
2014-Jul-26 22:07N 23°04' E 113°30'6551188.1
2014-Jul-26 21:33N 32°02' E 120°32'614322114565.9
2014-Jul-26 21:33N 32°58' W 118°05'6829472776.8
2014-Jul-26 21:33N 23°04' E 113°29'1 2.5
2014-Jul-26 21:19N 23°04' E 113°30'6363749.4
2014-Jul-26 21:08N 31°60' E 119°57'617810632.0
2014-Jul-26 20:33N 32°59' W 117°59'6834439324.8
2014-Jul-26 20:33N 23°04' E 113°29'117.4
2014-Jul-26 20:31N 23°04' E 113°30'6379469.0
2014-Jul-26 20:27N 31°60' E 119°57'2 6.2
2014-Jul-26 20:06N 31°59' E 119°59'6371127.7
2014-Jul-26 19:33N 23°04' E 113°29'117.5
2014-Jul-26 19:31N 23°04' E 113°30'63811153.4
2014-Jul-26 19:27N 32°02' E 119°56'618175948.6
2014-Jul-26 19:22N 32°59' W 117°54'68388260.7
2014-Jul-26 18:33N 23°04' E 113°29'6838512863.6
2014-Jul-26 18:32N 32°58' W 117°54'6838337205.7
2014-Jul-26 18:31N 23°04' E 113°30'6545960.1
2014-Jul-26 18:24N 31°21' E 121°27'2 2.3
2014-Jul-26 17:33N 31°22' E 121°29'599359516.4
2014-Jul-26 17:33N 23°04' E 115°14'962865.9
2014-Jul-26 17:31N 23°04' E 113°30'1694652.3
2014-Jul-26 17:28N 23°26' E 116°32'6665571245.0
2014-Jul-26 17:28N 32°58' W 117°54'684226891.6
2014-Jul-26 17:12N 22°52' E 113°34'173265.5
2014-Jul-26 16:33N 23°20' E 116°39'6662311450.3
2014-Jul-26 16:32N 33°01' W 117°53'6838267559.8
2014-Jul-26 16:31N 23°04' E 113°30'1 3.9
2014-Jul-26 16:21N 23°04' E 113°29'182231.8
2014-Jul-26 15:33N 23°18' E 116°47'6657149772.9
2014-Jul-26 15:31N 33°03' W 117°51'6839367455.5
2014-Jul-26 15:30N 23°04' E 113°29'119.5
2014-Jul-26 15:28N 23°04' E 113°30'68387572.0
2014-Jul-26 14:33N 33°06' W 117°50'65822369434.2
2014-Jul-26 14:33N 23°51' E 117°49'24323047.6
2014-Jul-26 14:33N 23°04' E 113°29'120.2
2014-Jul-26 14:31N 23°04' E 113°30'237245.3
2014-Jul-26 13:33N 23°46' E 117°44'65901395476.9
2014-Jul-26 13:32N 33°06' W 117°49'683989524.0
2014-Jul-26 13:28N 23°04' E 113°30'970.7
2014-Jul-26 13:20N 23°03' E 113°20'241312.0
2014-Jul-26 12:33N 23°43' E 117°38'659611872457.9
2014-Jul-26 12:33N 33°16' W 117°45'6844127664.4
2014-Jul-26 12:30N 23°02' E 113°24'6508.2
2014-Jul-26 12:30N 23°04' E 113°29'6542367.9
2014-Jul-26 12:13N 31°21' E 121°28'496753.1
2014-Jul-26 11:33N 39°04' E 117°48'49681181.5
2014-Jul-26 11:33N 31°22' E 121°29'6121648122.1
2014-Jul-26 11:33N 33°27' W 117°42'6508111029.7
2014-Jul-26 11:29N 22°31' E 120°07'37317887.9
2014-Jul-26 11:28N 23°02' E 113°24'6425464.9
2014-Jul-26 11:21N 31°59' E 120°02'638459160.8
2014-Jul-26 11:21N 23°04' E 113°29'9851247.4
2014-Jul-26 10:33N 39°03' E 117°50'9991797980.4
2014-Jul-26 10:33N 22°32' E 120°14'37533740.6
2014-Jul-26 10:33N 23°04' E 113°29'19045663.7
2014-Jul-26 10:32N 23°06' E 116°56'55741806.2
2014-Jul-26 10:31N 31°58' E 120°05'7915737.6
2014-Jul-26 10:31N 31°26' E 121°29'6592673.5
2014-Jul-26 10:16N 23°04' E 113°29'532.7
2014-Jul-26 10:07N 23°02' E 113°24'5 8.5
2014-Jul-26 09:30N 23°04' E 113°29'5156.0
2014-Jul-26 09:28N 23°02' E 113°24'64534660.0
2014-Jul-26 09:27N 31°57' E 120°11'6412123.6
2014-Jul-26 09:09N 23°04' E 113°29'6431093.6
2014-Jul-26 08:33N 31°57' E 120°15'64379840.4
2014-Jul-26 08:33N 23°04' E 113°29'98638988.6
2014-Jul-26 08:31N 39°05' E 117°44'98534439.8
2014-Jul-26 08:30N 23°04' E 113°29'528.6
2014-Jul-26 08:19N 23°02' E 113°24'2 3.2
2014-Jul-26 07:33N 23°02' E 113°21'989136946.1
2014-Jul-26 07:33N 39°05' E 117°47'98880862.1
2014-Jul-26 07:32N 23°01' E 113°31'9888253.6
2014-Jul-26 07:25N 39°05' E 117°44'98513187.0
2014-Jul-26 07:21N 23°04' E 113°29'64913349.9
2014-Jul-26 07:18N 31°60' E 120°23'681106.4
2014-Jul-26 07:14N 31°25' E 121°32'6645536.4
2014-Jul-26 07:07N 23°02' E 113°24'9891762.7
2014-Jul-26 06:33N 39°05' E 117°45'985107490.8
2014-Jul-26 06:33N 23°04' E 113°29'98539414.2
2014-Jul-26 06:31N 39°05' E 117°44'99626552.6
2014-Jul-26 06:29N 22°53' E 113°31'33134.4
2014-Jul-26 06:14N 22°27' E 113°53'1018101781.2
2014-Jul-26 06:13N 39°05' E 117°44'9898942.0
2014-Jul-26 06:07N 23°02' E 113°24'3 4.6
2014-Jul-26 05:33N 23°04' E 113°25'658591912.8
2014-Jul-26 05:33N 32°02' E 120°33'44548592.1
2014-Jul-26 05:33N 39°05' E 117°44'985177364.9
2014-Jul-26 05:33N 23°04' E 113°29'98572396.0
2014-Jul-26 05:32N 39°05' E 117°44'0 0.8
2014-Jul-26 05:28N 39°05' E 117°44'0 0.0
2014-Jul-26 05:04N 39°05' E 117°44'2 4.6
2014-Jul-26 04:34N 39°05' E 117°47'447146167.5
2014-Jul-26 04:33N 32°00' E 120°38'448805798.0
2014-Jul-26 04:33N 39°05' E 117°44'2390.4
2014-Jul-26 04:33N 39°05' E 117°46'986110878.3
2014-Jul-26 04:33N 23°04' E 113°29'985197075.6
2014-Jul-26 04:32N 39°05' E 117°44'98511155.8
2014-Jul-26 04:27N 23°04' E 113°29'6452569.5
2014-Jul-26 04:12N 31°57' E 120°19'445691.1
2014-Jul-26 03:33N 39°05' E 117°47'1719.6
2014-Jul-26 03:33N 39°04' E 117°48'32707.9
2014-Jul-26 03:33N 39°05' E 117°44'046.4
2014-Jul-26 03:33N 39°05' E 117°44'44650202.1
2014-Jul-26 03:32N 31°56' E 120°14'266638.5
2014-Jul-26 03:32N 32°01' E 120°43'6615159.2
2014-Jul-26 03:24N 23°04' E 113°29'0 0.5
2014-Jul-26 03:12N 23°04' E 113°29'9851531.9
2014-Jul-26 02:33N 39°04' E 117°47'31977.8
2014-Jul-26 02:33N 39°03' E 117°51'12613.6
2014-Jul-26 02:33N 39°04' E 117°51'6439.4
2014-Jul-26 02:32N 39°05' E 117°44'44916661.0
2014-Jul-26 02:31N 32°01' E 120°45'6629125.7
2014-Jul-26 02:27N 23°04' E 113°29'6386288.4
2014-Jul-26 02:20N 31°57' E 120°03'63814620.3
2014-Jul-26 02:18N 23°04' E 113°29'9851333.0
2014-Jul-26 01:33N 39°03' E 117°51'43098.9
2014-Jul-26 01:33N 39°05' E 117°46'415026.8
2014-Jul-26 01:33N 39°03' E 117°51'14670.9
2014-Jul-26 01:33N 39°04' E 117°50'98526082.4
2014-Jul-26 01:31N 23°04' E 113°29'66233081.2
2014-Jul-26 01:30N 32°01' E 120°45'6622145.8
2014-Jul-26 01:11N 23°04' E 113°29'9851558.4
2014-Jul-26 00:33N 39°05' E 117°44'1211.9
2014-Jul-26 00:33N 39°05' E 117°45'157.5
2014-Jul-26 00:32N 39°05' E 117°44'9856508.0
2014-Jul-26 00:23N 23°04' E 113°29'0 5.4
2014-Jul-26 00:22N 23°04' E 113°29'9861216.3
2014-Jul-25 23:33N 39°04' E 117°51'444319550.8
2014-Jul-25 23:33N 32°01' E 120°33'6556998.6
2014-Jul-25 23:28N 23°04' E 113°29'0 1.4
2014-Jul-25 23:22N 23°04' E 113°29'652806.3
2014-Jul-25 22:33N 32°01' E 120°27'44363801.3
2014-Jul-25 22:33N 39°05' E 117°46'98511119.0
2014-Jul-25 22:28N 23°04' E 113°29'0 1.4
2014-Jul-25 22:22N 23°04' E 113°29'212.0
2014-Jul-25 22:12N 23°03' E 113°30'6491018.4
2014-Jul-25 21:33N 31°58' E 120°24'64917043.9
2014-Jul-25 21:31N 23°04' E 113°29'0 1.2
2014-Jul-25 21:25N 23°04' E 113°29'44861.8
2014-Jul-25 21:22N 22°26' E 113°53'4448.6
2014-Jul-25 20:28N 23°04' E 113°29'0 2.0
2014-Jul-25 20:24N 23°04' E 113°29'656755.5
2014-Jul-25 19:32N 31°60' E 120°35'65610130.9
2014-Jul-25 19:28N 23°04' E 113°29'1391.8
2014-Jul-25 19:19N 22°52' E 113°34'13110.5
2014-Jul-25 19:12N 23°04' E 113°29'0 1.8
2014-Jul-25 19:07N 23°04' E 113°29'6551020.8
2014-Jul-25 18:29N 32°00' E 120°34'65510163.5
2014-Jul-25 18:25N 23°04' E 113°29'0 7.4
2014-Jul-25 18:24N 23°04' E 113°29'0 5.1
2014-Jul-25 18:22N 23°04' E 113°29'655803.1
2014-Jul-25 17:33N 32°00' E 120°34'6554181.0
2014-Jul-25 17:24N 23°04' E 113°29'0 0.3
2014-Jul-25 17:07N 23°04' E 113°29'0 2.6
2014-Jul-25 17:04N 23°04' E 113°29'0 0.2
2014-Jul-25 16:29N 23°04' E 113°29'655124098.8
2014-Jul-25 16:29N 32°00' E 120°34'65558947.5
2014-Jul-25 16:28N 23°04' E 113°29'0 5.0
2014-Jul-25 16:27N 23°04' E 113°29'3233.2
2014-Jul-25 15:29N 22°36' E 113°46'32756.1
2014-Jul-25 15:26N 23°04' E 113°29'0 3.1
2014-Jul-25 15:23N 23°04' E 113°29'47228.6
2014-Jul-25 15:10N 22°24' E 113°54'4753.2
2014-Jul-25 14:18N 23°04' E 113°29'6594546.8
2014-Jul-25 14:09N 31°31' E 121°23'6751132.8
2014-Jul-25 13:33N 22°28' E 113°54'431696.4
2014-Jul-25 13:32N 23°04' E 113°29'6606922.5
2014-Jul-25 13:26N 31°29' E 121°27'66015832.0
2014-Jul-25 13:24N 23°04' E 113°29'659103207.4
2014-Jul-25 13:23N 31°32' E 121°23'51225.0
2014-Jul-25 13:10N 32°00' E 120°34'5590.6
2014-Jul-25 12:33N 31°29' E 121°27'675347190.0
2014-Jul-25 12:33N 22°28' E 113°54'41699.6
2014-Jul-25 12:30N 23°03' E 113°30'2476.0
2014-Jul-25 12:30N 23°04' E 113°29'6594642.3
2014-Jul-25 12:21N 31°24' E 121°32'674847.4
2014-Jul-25 11:33N 22°28' E 113°54'672142239.4
2014-Jul-25 11:33N 31°20' E 121°33'71149.5
2014-Jul-25 11:33N 31°26' E 121°29'6593988.7
2014-Jul-25 11:23N 23°04' E 113°29'9857038.2
2014-Jul-25 11:14N 39°05' E 117°44'98522452.2
2014-Jul-25 11:12N 23°04' E 113°29'65523579.6
2014-Jul-25 11:10N 32°00' E 120°34'65642913.1
2014-Jul-25 11:09N 23°03' E 113°30'2206.3
2014-Jul-25 11:09N 23°04' E 113°29'9851664.6
2014-Jul-25 10:33N 39°05' E 117°45'985186682.8
2014-Jul-25 10:33N 23°04' E 113°29'65023417.8
2014-Jul-25 10:31N 31°15' E 121°29'651146456.9
2014-Jul-25 10:31N 23°03' E 113°30'415440.1
2014-Jul-25 10:30N 22°28' E 113°54'433276.1
2014-Jul-25 10:30N 23°04' E 113°29'65552406.9
2014-Jul-25 10:29N 32°00' E 120°34'6556549.7
2014-Jul-25 10:23N 23°04' E 113°29'52511.9
2014-Jul-25 10:17N 22°13' E 113°35'44348.3
2014-Jul-25 10:09N 22°57' E 113°33'915.4
2014-Jul-25 09:33N 23°05' E 113°27'985590892.3
2014-Jul-25 09:33N 39°04' E 117°48'10163657752.4
2014-Jul-25 09:33N 22°28' E 113°54'43203.1
2014-Jul-25 09:21N 23°04' E 113°29'9856915.1
2014-Jul-25 09:12N 39°05' E 117°44'99328596.7
2014-Jul-25 09:10N 22°56' E 113°34'3354.1
2014-Jul-25 08:33N 22°28' E 113°54'1017110913.9
2014-Jul-25 08:33N 39°05' E 117°47'986506887.0
2014-Jul-25 08:33N 23°04' E 113°29'9857239.6
2014-Jul-25 08:25N 39°05' E 117°44'98515628.3
2014-Jul-25 08:21N 23°04' E 113°29'0 0.9
2014-Jul-25 08:14N 23°04' E 113°29'50288.7
2014-Jul-25 08:03N 22°15' E 113°35'2243.8
2014-Jul-25 07:33N 22°28' E 113°54'10173662519.5
2014-Jul-25 07:33N 39°05' E 117°51'2817.8
2014-Jul-25 07:33N 39°04' E 117°49'44372507.8
2014-Jul-25 07:33N 32°01' E 120°31'6947569.9
2014-Jul-25 07:27N 22°15' E 113°35'50652.6
2014-Jul-25 07:23N 23°04' E 113°29'019.6
2014-Jul-25 07:22N 23°04' E 113°29'034.7
2014-Jul-25 07:22N 23°04' E 113°29'9851210.5
2014-Jul-25 06:34N 39°04' E 117°47'31488.5
2014-Jul-25 06:33N 39°04' E 117°51'44199293.0
2014-Jul-25 06:33N 32°01' E 120°26'691414822.7
2014-Jul-25 06:33N 22°15' E 113°35'502370.1
2014-Jul-25 06:32N 23°04' E 113°29'0 1.5
2014-Jul-25 06:28N 23°04' E 113°29'432748.4
2014-Jul-25 06:27N 22°28' E 113°54'372154.2
2014-Jul-25 06:26N 22°59' E 113°33'616642199.8
2014-Jul-25 06:18N 49°28' W 123°22'6164270615.5
2014-Jul-25 06:16N 23°04' E 113°29'9851376.6
2014-Jul-25 05:33N 39°05' E 117°45'44522538.4
2014-Jul-25 05:32N 31°59' E 120°21'5391746492.7
2014-Jul-25 05:32N 49°26' W 123°22'61657397675.2
2014-Jul-25 05:32N 23°04' E 113°29'016.3
2014-Jul-25 05:31N 23°04' E 113°29'432653.6
2014-Jul-25 05:30N 22°28' E 113°54'36536.9
2014-Jul-25 05:26N 22°59' E 113°33'44490.2
2014-Jul-25 05:21N 22°15' E 113°35'0 0.0
2014-Jul-25 04:33N 22°15' E 113°35'62093193135.6
2014-Jul-25 04:33N 49°21' W 123°17'6170336569.0
2014-Jul-25 04:32N 23°04' E 113°29'432030.5
2014-Jul-25 04:30N 22°28' E 113°54'36528.3
2014-Jul-25 04:26N 22°59' E 113°33'696.3
2014-Jul-25 04:22N 23°04' E 113°29'0 5.5
2014-Jul-25 04:21N 23°04' E 113°29'9851254.8
2014-Jul-25 03:33N 39°05' E 117°45'1033132809.4
2014-Jul-25 03:33N 22°15' E 113°35'22539.6
2014-Jul-25 03:30N 22°28' E 113°54'433364.5
2014-Jul-25 03:30N 23°04' E 113°29'0 2.5
2014-Jul-25 03:26N 23°04' E 113°29'6154.9
2014-Jul-25 03:23N 22°59' E 113°33'684.0
2014-Jul-25 03:19N 23°04' E 113°30'4256.0
2014-Jul-25 02:34N 22°28' E 113°54'101779568.1
2014-Jul-25 02:33N 39°05' E 117°46'98632553.5
2014-Jul-25 02:31N 23°04' E 113°30'7348.0
2014-Jul-25 02:30N 23°02' E 113°22'523543.1
2014-Jul-25 02:29N 22°11' E 113°32'54526.6
2014-Jul-25 02:23N 23°04' E 113°29'98513695.6
2014-Jul-25 02:18N 39°05' E 117°44'10181340.1
2014-Jul-25 01:33N 22°27' E 113°53'201215.7
2014-Jul-25 01:32N 22°11' E 113°40'103614177.1
2014-Jul-25 01:27N 39°05' E 117°44'99013761.8
2014-Jul-25 01:23N 22°59' E 113°33'685.3
2014-Jul-25 01:19N 23°04' E 113°30'1 4.9
2014-Jul-25 01:11N 23°04' E 113°29'10290.0
2014-Jul-25 01:09N 22°56' E 113°34'3456.9
2014-Jul-25 00:33N 22°27' E 113°53'141353.5
2014-Jul-25 00:33N 22°15' E 113°47'1120193.2
2014-Jul-25 00:33N 22°14' E 113°35'501710.2
2014-Jul-25 00:31N 23°04' E 113°30'5232.0
2014-Jul-25 00:30N 22°60' E 113°32'1113.8
2014-Jul-25 00:29N 22°59' E 113°33'660.9
2014-Jul-25 00:23N 23°04' E 113°29'0 0.2
2014-Jul-24 23:34N 23°04' E 113°29'0 0.4
2014-Jul-24 23:14N 23°04' E 113°29'0 0.3
2014-Jul-24 22:33N 23°04' E 113°29'0 0.6
2014-Jul-24 22:23N 23°04' E 113°29'64111766.9
2014-Jul-24 22:20N 31°57' E 120°11'644838.1
2014-Jul-24 21:33N 23°03' E 113°25'434.0
2014-Jul-24 21:26N 23°04' E 113°29'0 2.1
2014-Jul-24 21:23N 23°04' E 113°29'0 0.1
2014-Jul-24 20:23N 23°04' E 113°29'5769.5
2014-Jul-24 19:33N 22°10' E 113°50'57462.1
2014-Jul-24 19:26N 23°04' E 113°29'6484818.3
2014-Jul-24 19:18N 31°60' E 120°20'6634212.3
2014-Jul-24 19:08N 22°45' E 113°31'203696.5
2014-Jul-24 19:08N 23°04' E 113°29'5594.4
2014-Jul-24 18:33N 22°12' E 113°46'687103007.0
2014-Jul-24 18:33N 32°00' E 120°24'6503895.5
2014-Jul-24 18:23N 23°04' E 113°29'43191.5
2014-Jul-24 18:09N 22°27' E 113°53'6751067.0
2014-Jul-24 17:31N 32°02' E 120°29'6551686.7
2014-Jul-24 17:08N 23°04' E 113°29'4985.6
2014-Jul-24 16:33N 22°17' E 113°42'491841.7
2014-Jul-24 16:32N 23°04' E 113°29'656181681.2
2014-Jul-24 16:32N 32°01' E 120°34'6566708.9
2014-Jul-24 16:26N 23°04' E 113°29'4653.0
2014-Jul-24 15:33N 22°20' E 113°42'46270.8
2014-Jul-24 15:23N 23°04' E 113°29'0 0.0
2014-Jul-24 14:23N 23°04' E 113°29'0 0.6
2014-Jul-24 14:14N 23°04' E 113°29'0 0.1
2014-Jul-24 13:32N 23°04' E 113°29'0 0.3
2014-Jul-24 13:14N 23°04' E 113°29'648939.0
2014-Jul-24 12:32N 31°58' E 120°24'649584.5
2014-Jul-24 11:26N 23°04' E 113°29'0 0.5
2014-Jul-24 11:20N 23°04' E 113°29'6 7.3
2014-Jul-24 10:33N 23°02' E 113°23'658.8
2014-Jul-24 10:27N 23°04' E 113°29'0 5.5
2014-Jul-24 10:25N 23°04' E 113°29'3 3.8
2014-Jul-24 09:33N 23°04' E 113°25'2345.1
2014-Jul-24 09:33N 23°05' E 113°28'1 9.0
2014-Jul-24 09:27N 23°04' E 113°29'726.5
2014-Jul-24 09:12N 22°59' E 113°33'2 2.4
2014-Jul-24 08:30N 22°60' E 113°31'215.6
2014-Jul-24 08:24N 22°59' E 113°33'9796514.8
2014-Jul-24 08:15N 37°30' E 122°10'2293525.7
2014-Jul-24 08:11N 39°05' E 117°44'98543257.8
2014-Jul-24 08:10N 23°04' E 113°29'9751614.6
2014-Jul-24 07:33N 37°30' E 122°10'226270747.0
2014-Jul-24 07:33N 39°04' E 117°49'98796065.3
2014-Jul-24 07:33N 23°03' E 113°25'8177.8
2014-Jul-24 07:30N 22°59' E 113°33'5466.9
2014-Jul-24 07:29N 22°54' E 113°31'2674433.4
2014-Jul-24 07:26N 24°28' E 118°04'8771009.9
2014-Jul-24 06:34N 39°05' E 117°51'2253265.3
2014-Jul-24 06:29N 37°29' E 122°11'5 5.5
2014-Jul-24 05:33N 37°28' E 122°17'233279390.9
2014-Jul-24 05:33N 39°04' E 117°47'445266753.6
2014-Jul-24 05:33N 31°58' E 120°24'65421801.2
2014-Jul-24 05:31N 23°03' E 113°20'13464.7
2014-Jul-24 05:30N 22°59' E 113°33'9791031.4
2014-Jul-24 04:33N 37°26' E 122°16'977502507.5
2014-Jul-24 04:33N 23°04' E 113°25'924.3
2014-Jul-24 04:12N 22°59' E 113°33'4 5.5
2014-Jul-24 03:33N 23°02' E 113°31'456.8
2014-Jul-24 03:30N 22°59' E 113°33'97920603.7
2014-Jul-24 03:27N 37°26' E 122°16'9856179.1
2014-Jul-24 03:17N 22°51' E 113°34'9971361.7
2014-Jul-24 02:33N 39°04' E 117°47'32475.7
2014-Jul-24 02:33N 39°05' E 117°44'99331627.9
2014-Jul-24 02:31N 22°56' E 113°34'3106.9
2014-Jul-24 02:30N 22°59' E 113°33'97921482.6
2014-Jul-24 02:27N 37°26' E 122°16'230258.1
2014-Jul-24 01:33N 39°05' E 117°51'23027614.1
2014-Jul-24 01:33N 37°26' E 122°16'3563289.2
2014-Jul-24 01:26N 35°06' E 129°02'10917451.0
2014-Jul-24 01:18N 22°59' E 113°33'9901342.5
2014-Jul-24 00:33N 39°04' E 117°47'99015765.9
2014-Jul-24 00:30N 22°59' E 113°33'1412.1
2014-Jul-23 23:20N 23°03' E 113°18'1464.2
2014-Jul-23 23:07N 22°59' E 113°33'915.1
2014-Jul-23 22:33N 23°02' E 113°24'12119.1
2014-Jul-23 22:27N 22°53' E 113°32'1213.3
2014-Jul-23 21:33N 23°04' E 113°29'6382930.8
2014-Jul-23 21:20N 32°00' E 119°59'638810.2
2014-Jul-23 20:33N 23°04' E 113°29'63856015.1
2014-Jul-23 20:32N 31°58' E 120°02'638649.0
2014-Jul-23 19:33N 23°04' E 113°29'64025027.8
2014-Jul-23 19:32N 31°57' E 120°08'640655.8
2014-Jul-23 18:33N 23°04' E 113°29'64219586.8
2014-Jul-23 18:31N 31°57' E 120°14'6511515.6
2014-Jul-23 18:05N 22°51' E 113°34'6561234.2
2014-Jul-23 17:33N 31°59' E 120°19'64793125.3
2014-Jul-23 17:33N 23°04' E 113°29'14223.1
2014-Jul-23 17:29N 22°51' E 113°34'1414.9
2014-Jul-23 16:33N 23°04' E 113°29'651586004.4
2014-Jul-23 16:33N 32°01' E 120°25'651651.9
2014-Jul-23 15:33N 23°04' E 113°29'655262055.3
2014-Jul-23 15:33N 32°02' E 120°31'701317.7
2014-Jul-23 15:30N 31°13' E 121°30'650689.2
2014-Jul-23 14:33N 23°04' E 113°29'106984.9
2014-Jul-23 14:33N 22°56' E 113°34'65964124.8
2014-Jul-23 14:33N 31°18' E 121°34'653209.8
2014-Jul-23 14:32N 32°01' E 120°36'2089.0
2014-Jul-23 14:18N 31°57' E 120°13'64512893.0
2014-Jul-23 14:15N 22°59' E 113°33'7112.6
2014-Jul-23 14:12N 22°52' E 113°33'4 5.8
2014-Jul-23 13:33N 22°56' E 113°34'664170717.4
2014-Jul-23 13:32N 32°01' E 120°42'659791250.4
2014-Jul-23 13:32N 23°04' E 113°29'101683.2
2014-Jul-23 13:32N 22°55' E 113°27'7491.9
2014-Jul-23 13:31N 22°59' E 113°33'64830274.6
2014-Jul-23 13:30N 31°58' E 120°17'6671840.9
2014-Jul-23 13:08N 22°47' E 113°13'2339.2
2014-Jul-23 12:33N 23°04' E 113°29'649116748.1
2014-Jul-23 12:33N 31°60' E 120°21'64970769.9
2014-Jul-23 12:33N 23°04' E 113°28'101299.0
2014-Jul-23 12:32N 22°56' E 113°34'16237.7
2014-Jul-23 12:28N 22°53' E 113°17'1042.9
2014-Jul-23 12:14N 23°03' E 113°17'16184.3
2014-Jul-23 12:09N 22°47' E 113°19'6711145.7
2014-Jul-23 11:33N 32°01' E 120°26'65261765.3
2014-Jul-23 11:33N 23°04' E 113°29'6860.9
2014-Jul-23 11:32N 23°02' E 113°23'12131.1
2014-Jul-23 11:27N 22°56' E 113°34'11227.4
2014-Jul-23 11:24N 23°03' E 113°25'13269.0
2014-Jul-23 11:21N 22°51' E 113°18'1620.4
2014-Jul-23 10:33N 23°04' E 113°29'1012194.9
2014-Jul-23 10:33N 22°55' E 113°34'141315.5
2014-Jul-23 10:33N 23°03' E 113°21'661158522.8
2014-Jul-23 10:32N 32°02' E 120°31'6584826.9
2014-Jul-23 10:24N 23°03' E 113°25'4 4.7
2014-Jul-23 09:33N 23°04' E 113°29'65710603.5
2014-Jul-23 09:30N 32°01' E 120°36'6607309.8
2014-Jul-23 09:24N 23°03' E 113°25'6652545.8
2014-Jul-23 09:09N 32°01' E 120°45'4 6.6
2014-Jul-23 08:33N 31°58' E 120°47'6633419.0
2014-Jul-23 08:22N 23°03' E 113°25'5 5.6
2014-Jul-23 07:33N 23°04' E 113°30'5119.8
2014-Jul-23 07:31N 23°03' E 113°25'5 4.7
2014-Jul-23 06:33N 23°04' E 113°30'65556147.3
2014-Jul-23 06:33N 32°00' E 120°34'65824947.2
2014-Jul-23 06:31N 23°03' E 113°25'5 4.7
2014-Jul-23 05:33N 23°04' E 113°30'653336064.6
2014-Jul-23 05:33N 32°02' E 120°28'443227580.3
2014-Jul-23 05:33N 39°05' E 117°46'21199.9
2014-Jul-23 05:33N 39°05' E 117°44'98791115.1
2014-Jul-23 05:32N 23°03' E 113°25'9873615.0
2014-Jul-23 05:16N 39°05' E 117°44'0 0.0
2014-Jul-23 05:13N 39°05' E 117°44'9851498.1
2014-Jul-23 04:33N 23°04' E 113°30'986154338.0
2014-Jul-23 04:33N 39°04' E 117°51'44254890.9
2014-Jul-23 04:33N 31°60' E 120°23'4454765.2
2014-Jul-23 04:27N 39°05' E 117°44'98711462.9
2014-Jul-23 04:22N 23°03' E 113°25'1384.0
2014-Jul-23 04:12N 22°54' E 113°15'9981534.1
2014-Jul-23 03:33N 39°05' E 117°45'1997.2
2014-Jul-23 03:33N 39°04' E 117°46'985104321.9
2014-Jul-23 03:33N 23°04' E 113°30'463.3
2014-Jul-23 03:29N 23°03' E 113°25'141474.8
2014-Jul-23 03:28N 22°51' E 113°18'110715563.1
2014-Jul-23 03:24N 35°07' E 129°03'109710315.4
2014-Jul-23 03:17N 23°03' E 113°19'5 6.7
2014-Jul-23 02:33N 23°03' E 113°25'9881185394.2
2014-Jul-23 02:33N 39°04' E 117°51'986221855.6
2014-Jul-23 02:33N 23°04' E 113°30'1090230853.8
2014-Jul-23 02:33N 35°07' E 129°03'10944370.4
2014-Jul-23 02:18N 23°03' E 113°25'10941478.0
2014-Jul-23 01:33N 35°07' E 129°03'5862110465.9
2014-Jul-23 01:33N 39°04' E 117°51'985197094.4
2014-Jul-23 01:33N 23°04' E 113°30'0 4.3
2014-Jul-23 01:28N 23°04' E 113°29'499.7
2014-Jul-23 01:25N 23°03' E 113°25'64176916.8
2014-Jul-23 01:25N 31°58' E 120°03'6542601.2
2014-Jul-23 01:10N 22°45' E 113°31'1932.0
2014-Jul-23 00:33N 23°04' E 113°30'0 8.6
2014-Jul-23 00:31N 23°04' E 113°29'66025259.4
2014-Jul-23 00:29N 31°33' E 121°21'6632919.6
2014-Jul-23 00:16N 23°03' E 113°25'10931551.5
2014-Jul-22 23:33N 35°06' E 129°03'108963247.8
2014-Jul-22 23:32N 23°04' E 113°30'015.8
2014-Jul-22 23:31N 23°04' E 113°29'435.6
2014-Jul-22 23:24N 23°03' E 113°25'64466283.3
2014-Jul-22 23:23N 31°57' E 120°13'681189.4
2014-Jul-22 23:20N 31°30' E 121°26'660842.5
2014-Jul-22 22:33N 23°04' E 113°29'660237509.2
2014-Jul-22 22:33N 31°27' E 121°29'66019469.5
2014-Jul-22 22:31N 23°04' E 113°29'11597.9
2014-Jul-22 22:30N 23°03' E 113°18'1645.2
2014-Jul-22 22:09N 22°53' E 113°31'6661138.2
2014-Jul-22 21:34N 31°24' E 121°32'676270467.0
2014-Jul-22 21:33N 22°25' E 113°54'4627309.2
2014-Jul-22 21:33N 23°04' E 113°29'10137.0
2014-Jul-22 21:29N 22°55' E 113°27'10136.4
2014-Jul-22 21:25N 23°04' E 113°30'1 0.7
2014-Jul-22 20:33N 23°04' E 113°29'65654952.0
2014-Jul-22 20:32N 31°19' E 121°34'6562017.1
2014-Jul-22 20:13N 23°04' E 113°30'1 0.9
2014-Jul-22 19:33N 23°04' E 113°29'65139052.1
2014-Jul-22 19:32N 31°15' E 121°30'6513808.4
2014-Jul-22 19:22N 23°04' E 113°30'1 0.8
2014-Jul-22 18:33N 23°04' E 113°29'6464085.8
2014-Jul-22 18:24N 31°09' E 121°28'108729.6
2014-Jul-22 18:15N 32°18' E 119°50'649913.1
2014-Jul-22 17:32N 23°04' E 113°29'1 1.7
2014-Jul-22 17:10N 23°04' E 113°30'1 1.0
2014-Jul-22 16:33N 23°04' E 113°29'4929249.5
2014-Jul-22 16:33N 22°16' E 113°38'3 2.9
2014-Jul-22 15:34N 22°14' E 113°35'5012029.9
2014-Jul-22 15:33N 23°04' E 113°29'1 1.9
2014-Jul-22 15:13N 23°04' E 113°30'1 1.0
2014-Jul-22 14:33N 23°04' E 113°29'63819302.0
2014-Jul-22 14:31N 31°58' E 120°03'6782561.9
2014-Jul-22 14:15N 22°14' E 113°35'680969.2
2014-Jul-22 13:33N 31°57' E 120°07'640575602.5
2014-Jul-22 13:33N 23°04' E 113°29'6388769.6
2014-Jul-22 13:29N 32°01' E 119°58'67926846.1
2014-Jul-22 13:27N 22°14' E 113°35'681757.2
2014-Jul-22 12:33N 31°57' E 120°12'641256511.2
2014-Jul-22 12:33N 23°04' E 113°29'6399664.0
2014-Jul-22 12:29N 32°02' E 119°58'553.4
2014-Jul-22 12:24N 31°58' E 120°02'63819128.7
2014-Jul-22 12:22N 23°04' E 113°30'507479.6
2014-Jul-22 12:21N 22°14' E 113°35'683858.2
2014-Jul-22 11:33N 31°57' E 120°16'151692.9
2014-Jul-22 11:33N 32°00' E 119°59'63854691.4
2014-Jul-22 11:32N 23°04' E 113°29'63910092.0
2014-Jul-22 11:28N 31°58' E 120°06'67933495.0
2014-Jul-22 11:27N 22°14' E 113°35'501158.1
2014-Jul-22 11:25N 23°04' E 113°30'9856043.8
2014-Jul-22 11:15N 39°05' E 117°44'444640.4
2014-Jul-22 10:33N 32°00' E 120°21'441397208.7
2014-Jul-22 10:33N 39°04' E 117°50'10331859399.2
2014-Jul-22 10:33N 22°14' E 113°35'4958398.1
2014-Jul-22 10:33N 23°02' E 113°24'642577867.9
2014-Jul-22 10:33N 31°59' E 120°02'63879180.4
2014-Jul-22 10:33N 23°04' E 113°29'6415456.3
2014-Jul-22 10:26N 31°57' E 120°12'64122849.4
2014-Jul-22 10:24N 23°04' E 113°29'643766.3
2014-Jul-22 09:34N 31°57' E 120°16'443227776.2
2014-Jul-22 09:33N 39°04' E 117°51'986443533.2
2014-Jul-22 09:33N 23°04' E 113°29'65226064.1
2014-Jul-22 09:32N 32°01' E 120°25'175688.7
2014-Jul-22 09:32N 31°58' E 120°05'7910525.1
2014-Jul-22 09:31N 31°21' E 121°27'65410708.2
2014-Jul-22 09:27N 23°04' E 113°29'0 1.7
2014-Jul-22 09:11N 23°04' E 113°30'501533.7
2014-Jul-22 09:09N 22°14' E 113°35'10341737.3
2014-Jul-22 08:33N 39°04' E 117°52'441176210.3
2014-Jul-22 08:33N 32°02' E 120°29'1816229.2
2014-Jul-22 08:33N 31°57' E 120°09'7627262.2
2014-Jul-22 08:33N 31°21' E 121°27'69247491.8
2014-Jul-22 08:33N 31°59' E 120°20'648129502.5
2014-Jul-22 08:33N 23°04' E 113°29'153.3
2014-Jul-22 08:32N 23°04' E 113°30'50569.7
2014-Jul-22 08:27N 22°14' E 113°35'501277.0
2014-Jul-22 08:24N 23°04' E 113°29'9861157.7
2014-Jul-22 07:33N 39°04' E 117°49'9861774130.6
2014-Jul-22 07:33N 23°04' E 113°29'6512342417.1
2014-Jul-22 07:33N 32°01' E 120°24'98116.2
2014-Jul-22 07:33N 32°01' E 120°35'65632812.0
2014-Jul-22 07:32N 23°04' E 113°30'654112149.8
2014-Jul-22 07:32N 31°21' E 121°27'6918429.1
2014-Jul-22 07:27N 22°14' E 113°35'501286.2
2014-Jul-22 07:24N 23°04' E 113°29'654768.4
2014-Jul-22 06:33N 32°02' E 120°29'694131433.8
2014-Jul-22 06:33N 22°14' E 113°35'507839.1
2014-Jul-22 06:33N 23°04' E 113°29'161.3
2014-Jul-22 06:32N 23°04' E 113°30'98553753.6
2014-Jul-22 06:31N 39°05' E 117°44'44811615.0
2014-Jul-22 06:29N 32°00' E 120°40'6071445.8
2014-Jul-22 06:03N 23°04' E 115°20'6051210.0
2014-Jul-22 05:33N 32°01' E 120°34'107476.3
2014-Jul-22 05:33N 32°01' E 120°46'446321332.4
2014-Jul-22 05:33N 39°03' E 117°49'1032218635.9
2014-Jul-22 05:33N 22°14' E 113°35'5013869.1
2014-Jul-22 05:33N 23°04' E 113°29'4139.8
2014-Jul-22 05:31N 23°04' E 113°25'431.3
2014-Jul-22 05:23N 23°04' E 113°30'1 0.8
2014-Jul-22 04:33N 23°04' E 113°29'9863548895.8
2014-Jul-22 04:33N 39°04' E 117°52'1033132869.1
2014-Jul-22 04:33N 22°14' E 113°35'69762714.3
2014-Jul-22 04:32N 32°00' E 120°39'11140.9
2014-Jul-22 04:28N 31°58' E 120°51'662596126.4
2014-Jul-22 04:28N 23°04' E 113°30'0 8.5
2014-Jul-22 04:24N 23°04' E 113°29'6382990.6
2014-Jul-22 04:12N 31°58' E 120°03'440690.8
2014-Jul-22 03:33N 39°04' E 117°48'1033123965.8
2014-Jul-22 03:33N 22°14' E 113°35'5018032.0
2014-Jul-22 03:33N 23°04' E 113°29'6395961.2
2014-Jul-22 03:26N 31°58' E 120°06'34254.1
2014-Jul-22 03:18N 32°01' E 120°46'6628135.0
2014-Jul-22 03:13N 23°04' E 113°30'028.0
2014-Jul-22 03:12N 23°04' E 113°29'63819462.9
2014-Jul-22 03:10N 31°58' E 120°03'6411031.4
2014-Jul-22 02:33N 23°03' E 113°25'643579074.9
2014-Jul-22 02:33N 31°57' E 120°10'6401152834.1
2014-Jul-22 02:33N 23°04' E 113°29'5016394.7
2014-Jul-22 02:33N 22°14' E 113°35'51793.0
2014-Jul-22 02:29N 23°03' E 113°18'10245.4
2014-Jul-22 02:27N 23°04' E 113°29'0 0.1
2014-Jul-22 01:33N 23°04' E 113°29'642177825.1
2014-Jul-22 01:33N 31°57' E 120°14'643289227.8
2014-Jul-22 01:33N 23°05' E 113°27'5115312.3
2014-Jul-22 01:33N 22°14' E 113°35'69111200.9
2014-Jul-22 01:29N 31°21' E 121°27'6542239.4
2014-Jul-22 01:12N 23°04' E 113°29'6451009.1
2014-Jul-22 00:33N 31°58' E 120°18'645211150.1
2014-Jul-22 00:33N 23°04' E 113°28'1 7.7
2014-Jul-22 00:27N 23°04' E 113°29'1 3.3
2014-Jul-22 00:16N 23°04' E 113°30'50396.5
2014-Jul-22 00:09N 22°14' E 113°35'4983.6
2014-Jul-21 23:33N 23°02' E 113°22'49217.1
2014-Jul-21 23:20N 22°14' E 113°35'50586.6
2014-Jul-21 23:15N 23°04' E 113°29'6567067.2
2014-Jul-21 23:09N 31°47' E 120°55'2948.1
2014-Jul-21 22:33N 31°58' E 120°25'292634.0
2014-Jul-21 22:33N 31°47' E 120°55'69219455.7
2014-Jul-21 22:31N 22°16' E 113°37'49729.7
2014-Jul-21 22:27N 23°04' E 113°29'1 0.6
2014-Jul-21 21:32N 23°04' E 113°30'65529869.3
2014-Jul-21 21:31N 31°47' E 120°55'6569634.0
2014-Jul-21 21:27N 23°04' E 113°29'656670.5
2014-Jul-21 20:28N 31°47' E 120°55'6763997.4
2014-Jul-21 20:18N 22°24' E 113°54'676173888.2
2014-Jul-21 20:18N 31°47' E 120°55'6562622.7
2014-Jul-21 20:03N 23°04' E 113°29'6561326.1
2014-Jul-21 19:33N 31°47' E 120°55'  
Track history (hours):
 
Tides and Currents Weather Stations Pressure Air Temp Water Temp Dewpoint Dewpoint Depression Visibility Wind Speed Wind Dir Waves Ship Positions

Callsign 000000 (name unknown)

Last reported at 2014-Jul-31 19:31 UTC. Time now 2014-Jul-31 19:38 UTC.
Position N 32°02' E 120°24'.

Type: Fishing. MMSI: 200007452.

Date/timePositionNaut miles runAvg speedWind from/ knotsBaromVisibWave heightAir tempDewpointWater temp
2014-Jul-31 19:31N 32°02' E 120°24'0 0.0
2014-Jul-31 18:33N 32°02' E 120°24'0 0.0
2014-Jul-31 17:30N 32°02' E 120°24'0 0.0
2014-Jul-31 16:33N 32°02' E 120°24'0 0.0
2014-Jul-31 15:33N 32°02' E 120°24'65554848.6
2014-Jul-31 15:33N 22°58' E 113°33'772.7
2014-Jul-31 15:27N 22°52' E 113°34'660737.9
2014-Jul-31 14:33N 32°02' E 120°24'6588966.8
2014-Jul-31 14:29N 23°02' E 113°21'1294.9
2014-Jul-31 14:21N 22°58' E 113°33'3138.7
2014-Jul-31 14:20N 23°01' E 113°32'653837.8
2014-Jul-31 13:33N 32°02' E 120°24'65416452.9
2014-Jul-31 13:31N 23°04' E 113°26'654681.8
2014-Jul-31 12:33N 32°02' E 120°24'95531251.1
2014-Jul-31 12:32N 19°44' E 109°11'3134537.2
2014-Jul-31 12:27N 23°04' E 113°29'449.7
2014-Jul-31 12:22N 23°01' E 113°32'6638715.6
2014-Jul-31 12:18N 32°01' E 120°46'702947.1
2014-Jul-31 11:33N 22°13' E 113°35'688412762.9
2014-Jul-31 11:33N 31°58' E 120°21'5102.9
2014-Jul-31 11:30N 32°02' E 120°24'10528.1
2014-Jul-31 11:29N 31°57' E 120°14'64221015.0
2014-Jul-31 11:27N 23°04' E 113°30'419.7
2014-Jul-31 11:16N 23°01' E 113°32'2281318.6
2014-Jul-31 11:06N 23°46' E 117°35'518950.6
2014-Jul-31 10:33N 32°02' E 120°24'6460.7
2014-Jul-31 10:33N 31°59' E 120°19'51312236.5
2014-Jul-31 10:30N 23°46' E 117°35'2293219.8
2014-Jul-31 10:26N 23°04' E 113°30'451811.5
2014-Jul-31 10:24N 22°20' E 113°19'421334.4
2014-Jul-31 10:22N 23°01' E 113°32'48256.8
2014-Jul-31 10:11N 22°13' E 113°35'6831086.4
2014-Jul-31 09:33N 31°57' E 120°14'102423.8
2014-Jul-31 09:33N 32°01' E 120°25'65313272.2
2014-Jul-31 09:30N 23°01' E 113°32'65313596.8
2014-Jul-31 09:27N 32°02' E 120°24'6528626.5
2014-Jul-31 09:23N 23°04' E 113°30'51338.2
2014-Jul-31 09:14N 22°13' E 113°35'2223502.5
2014-Jul-31 09:10N 23°39' E 117°17'18292.6
2014-Jul-31 09:06N 23°46' E 117°35'520947.5
2014-Jul-31 08:33N 32°02' E 120°30'932182.9
2014-Jul-31 08:33N 31°59' E 120°20'34121161.5
2014-Jul-31 08:32N 37°26' E 122°17'101947642.0
2014-Jul-31 08:31N 22°13' E 113°35'103452441.5
2014-Jul-31 08:30N 39°05' E 117°44'44210208.3
2014-Jul-31 08:27N 32°02' E 120°24'65310692.4
2014-Jul-31 08:24N 23°01' E 113°32'2282412.2
2014-Jul-31 08:18N 23°46' E 117°35'2293270.9
2014-Jul-31 08:14N 23°04' E 113°30'656977.0
2014-Jul-31 07:34N 32°01' E 120°36'343247107.9
2014-Jul-31 07:33N 37°32' E 122°25'344309887.4
2014-Jul-31 07:33N 32°02' E 120°24'414587.2
2014-Jul-31 07:33N 31°58' E 120°24'649778768.8
2014-Jul-31 07:33N 23°04' E 113°29'986177420.1
2014-Jul-31 07:33N 39°05' E 117°44'9858289.0
2014-Jul-31 07:26N 23°04' E 113°30'513994.3
2014-Jul-31 07:25N 22°13' E 113°35'2392043.1
2014-Jul-31 07:18N 23°46' E 117°35'9191222.4
2014-Jul-31 06:33N 39°05' E 117°44'103433244.6
2014-Jul-31 06:31N 22°13' E 113°35'532406.9
2014-Jul-31 06:30N 23°05' E 113°27'65216417.8
2014-Jul-31 06:27N 32°02' E 120°24'65225504.6
2014-Jul-31 06:26N 23°04' E 113°30'2297703.5
2014-Jul-31 06:24N 23°46' E 117°35'9194335.1
2014-Jul-31 06:11N 39°05' E 117°44'5 7.4
2014-Jul-31 05:33N 39°04' E 117°50'103424652.3
2014-Jul-31 05:31N 22°13' E 113°35'532678.1
2014-Jul-31 05:30N 23°05' E 113°27'122257.1
2014-Jul-31 05:29N 22°56' E 113°34'99372945.1
2014-Jul-31 05:29N 39°05' E 117°44'44220682.4
2014-Jul-31 05:27N 32°02' E 120°24'19988.6
2014-Jul-31 05:26N 31°58' E 120°02'645580182.4
2014-Jul-31 05:26N 23°04' E 113°16'121727.7
2014-Jul-31 05:26N 23°04' E 113°29'2298011.7
2014-Jul-31 05:24N 23°46' E 117°35'8621024.3
2014-Jul-31 04:34N 37°31' E 122°25'233419818.2
2014-Jul-31 04:33N 39°03' E 117°52'987888605.1
2014-Jul-31 04:33N 23°01' E 113°31'9431.0
2014-Jul-31 04:32N 23°02' E 113°21'98877343.4
2014-Jul-31 04:31N 39°03' E 117°50'1034143112.0
2014-Jul-31 04:31N 22°13' E 113°35'3815294.9
2014-Jul-31 04:31N 22°51' E 113°34'16886.0
2014-Jul-31 04:30N 23°05' E 113°26'653213545.7
2014-Jul-31 04:30N 32°02' E 120°26'221.7
2014-Jul-31 04:24N 32°02' E 120°24'6528121.2
2014-Jul-31 04:20N 23°04' E 113°29'2298516.4
2014-Jul-31 04:18N 23°46' E 117°35'506260388.4
2014-Jul-31 04:18N 31°29' E 121°27'741059.9
2014-Jul-31 04:14N 31°58' E 120°06'346518.4
2014-Jul-31 03:34N 37°27' E 122°17'235422990.4
2014-Jul-31 03:33N 39°05' E 117°45'1495.2
2014-Jul-31 03:33N 39°04' E 117°46'991198185.3
2014-Jul-31 03:33N 22°58' E 113°32'991198140.6
2014-Jul-31 03:33N 39°03' E 117°51'986355035.1
2014-Jul-31 03:33N 23°04' E 113°25'481719.5
2014-Jul-31 03:31N 22°17' E 113°36'69415135.4
2014-Jul-31 03:28N 31°27' E 121°30'664946.2
2014-Jul-31 03:27N 32°02' E 120°24'652123556.3
2014-Jul-31 03:27N 23°06' E 113°26'2324460.1
2014-Jul-31 03:24N 23°46' E 117°35'9181088.1
2014-Jul-31 02:33N 39°04' E 117°51'621582.9
2014-Jul-31 02:33N 39°05' E 117°44'984221508.7
2014-Jul-31 02:33N 23°06' E 113°26'984126567.1
2014-Jul-31 02:33N 39°05' E 117°45'99515718.0
2014-Jul-31 02:29N 22°54' E 113°30'6618973.1
2014-Jul-31 02:24N 32°02' E 120°24'5184869.7
2014-Jul-31 02:18N 23°46' E 117°35'9181238.7
2014-Jul-31 01:34N 39°04' E 117°48'1188.9
2014-Jul-31 01:33N 39°04' E 117°48'984208372.5
2014-Jul-31 01:33N 23°06' E 113°26'493095.8
2014-Jul-31 01:32N 22°24' E 113°54'100238793.9
2014-Jul-31 01:31N 37°26' E 122°16'85576962.6
2014-Jul-31 01:30N 23°46' E 117°35'51812351.8
2014-Jul-31 01:27N 32°02' E 120°24'68249.3
2014-Jul-31 01:11N 31°25' E 121°31'493788.8
2014-Jul-31 00:33N 39°04' E 117°51'494254269.8
2014-Jul-31 00:33N 31°23' E 121°30'5028481.5
2014-Jul-31 00:30N 23°46' E 117°35'2325085.6
2014-Jul-31 00:27N 23°06' E 113°26'65214858.4
2014-Jul-31 00:24N 32°02' E 120°24'652761.5
2014-Jul-30 23:33N 23°06' E 113°26'6526844.0
2014-Jul-30 23:27N 32°02' E 120°24'6612862.6
2014-Jul-30 23:13N 22°51' E 113°34'1620.9
2014-Jul-30 22:28N 23°05' E 113°27'65210388.0
2014-Jul-30 22:24N 32°02' E 120°24'10260.2
2014-Jul-30 22:22N 31°57' E 120°14'6514821.3
2014-Jul-30 22:14N 22°54' E 113°29'6125436.0
2014-Jul-30 22:07N 29°39' E 121°60'164292.6
2014-Jul-30 21:33N 31°58' E 120°19'6467247.3
2014-Jul-30 21:28N 23°05' E 113°27'65257263.5
2014-Jul-30 21:27N 32°02' E 120°24'170983.5
2014-Jul-30 21:17N 29°37' E 122°05'168229.5
2014-Jul-30 20:33N 32°00' E 120°24'215.4
2014-Jul-30 20:24N 32°02' E 120°24'65217652.8
2014-Jul-30 20:22N 23°05' E 113°27'1681.4
2014-Jul-30 20:10N 22°51' E 113°34'6631060.2
2014-Jul-30 19:33N 32°02' E 120°29'6558183.3
2014-Jul-30 19:28N 23°05' E 113°27'65247912.5
2014-Jul-30 19:27N 32°02' E 120°24'6618346.6
2014-Jul-30 19:23N 22°51' E 113°34'2401280.4
2014-Jul-30 19:11N 23°54' E 117°47'243337.8
2014-Jul-30 18:28N 23°05' E 113°27'65249953.7
2014-Jul-30 18:27N 32°02' E 120°24'5133948.0
2014-Jul-30 18:20N 23°50' E 117°40'513589.9
2014-Jul-30 17:27N 32°02' E 120°24'6527524.7
2014-Jul-30 17:22N 23°05' E 113°27'0 0.0
2014-Jul-30 16:28N 23°05' E 113°27'6521580.0
2014-Jul-30 16:03N 32°02' E 120°24'6511106.5
2014-Jul-30 15:28N 23°05' E 113°29'65110608.9
2014-Jul-30 15:24N 32°02' E 120°24'518541.7
2014-Jul-30 14:27N 23°46' E 117°35'2301259.7
2014-Jul-30 14:16N 23°05' E 113°29'65110854.5
2014-Jul-30 14:12N 32°02' E 120°24'657970.9
2014-Jul-30 13:32N 23°02' E 113°23'650259961.0
2014-Jul-30 13:32N 31°58' E 120°18'799.8
2014-Jul-30 13:27N 32°02' E 120°24'6899688.4
2014-Jul-30 13:23N 22°17' E 113°35'482748.9
2014-Jul-30 13:22N 23°05' E 113°29'5264.0
2014-Jul-30 12:33N 22°13' E 113°35'688112507.9
2014-Jul-30 12:33N 31°59' E 120°20'535.0
2014-Jul-30 12:24N 32°02' E 120°24'65128595.4
2014-Jul-30 12:23N 23°05' E 113°29'6564362.3
2014-Jul-30 12:14N 31°22' E 121°30'545799.5
2014-Jul-30 11:33N 23°17' E 116°48'19185926.6
2014-Jul-30 11:33N 23°02' E 113°21'6561180201.0
2014-Jul-30 11:33N 32°01' E 120°23'7314602.2
2014-Jul-30 11:33N 31°19' E 121°34'661108179.6
2014-Jul-30 11:32N 23°02' E 113°24'2343458.6
2014-Jul-30 11:28N 23°46' E 117°35'2316612.7
2014-Jul-30 11:26N 23°05' E 113°27'6523662.6
2014-Jul-30 11:15N 32°02' E 120°24'4422394.8
2014-Jul-30 11:04N 39°05' E 117°44'2 3.3
2014-Jul-30 10:33N 39°05' E 117°46'44188274.6
2014-Jul-30 10:33N 32°03' E 120°26'726330.9
2014-Jul-30 10:32N 31°19' E 121°34'657181904.6
2014-Jul-30 10:32N 23°05' E 113°27'171.2
2014-Jul-30 10:31N 23°05' E 113°26'2324467.1
2014-Jul-30 10:28N 23°46' E 117°35'5195117.8
2014-Jul-30 10:22N 32°02' E 120°30'65920804.9
2014-Jul-30 10:20N 23°02' E 113°24'6568175.9
2014-Jul-30 10:15N 32°02' E 120°24'66121430.7
2014-Jul-30 10:13N 22°51' E 113°34'1692372.4
2014-Jul-30 10:09N 23°21' E 116°35'9451585.1
2014-Jul-30 09:33N 39°05' E 117°47'986591401.4
2014-Jul-30 09:33N 23°04' E 113°30'65694534.5
2014-Jul-30 09:33N 31°20' E 121°33'65745494.9
2014-Jul-30 09:32N 23°05' E 113°27'6528325.0
2014-Jul-30 09:27N 32°02' E 120°24'9637.4
2014-Jul-30 09:26N 32°01' E 120°35'6616276.1
2014-Jul-30 09:20N 23°02' E 113°24'6 7.1
2014-Jul-30 08:33N 23°04' E 113°30'6571181790.8
2014-Jul-30 08:33N 31°23' E 121°30'49785117.7
2014-Jul-30 08:33N 39°05' E 117°47'98565638.0
2014-Jul-30 08:32N 23°05' E 113°27'65720928.0
2014-Jul-30 08:30N 32°01' E 120°36'10213.8
2014-Jul-30 08:27N 32°02' E 120°24'6618091.4
2014-Jul-30 08:22N 22°51' E 113°34'2281098.8
2014-Jul-30 08:10N 23°46' E 117°35'501818.4
2014-Jul-30 07:33N 31°21' E 121°31'496446686.4
2014-Jul-30 07:33N 39°04' E 117°50'49293211.9
2014-Jul-30 07:33N 31°26' E 121°30'659139456.3
2014-Jul-30 07:33N 23°04' E 113°30'3292.1
2014-Jul-30 07:32N 23°05' E 113°27'6528384.4
2014-Jul-30 07:27N 32°02' E 120°24'51810478.0
2014-Jul-30 07:24N 23°46' E 117°35'230271.2
2014-Jul-30 06:33N 23°05' E 113°28'2153.0
2014-Jul-30 06:33N 23°04' E 113°30'175.7
2014-Jul-30 06:32N 23°04' E 113°29'52021.8
2014-Jul-30 06:32N 23°02' E 113°24'663170579.9
2014-Jul-30 06:32N 31°28' E 121°27'63858.5
2014-Jul-30 06:27N 32°02' E 120°24'5182049.5
2014-Jul-30 06:12N 23°46' E 117°35'518797.7
2014-Jul-30 05:33N 32°02' E 120°24'652123561.5
2014-Jul-30 05:33N 23°04' E 113°29'070.3
2014-Jul-30 05:33N 23°04' E 113°30'6586134.9
2014-Jul-30 05:26N 31°28' E 121°25'658746.6
2014-Jul-30 04:33N 23°04' E 113°30'827185.5
2014-Jul-30 04:33N 22°57' E 113°33'65613053.3
2014-Jul-30 04:30N 32°02' E 120°24'625055.7
2014-Jul-30 04:30N 31°28' E 121°25'952.2
2014-Jul-30 04:19N 31°21' E 121°31'5004362.3
2014-Jul-30 04:12N 23°46' E 117°35'230353.9
2014-Jul-30 03:33N 22°53' E 113°31'51787.2
2014-Jul-30 03:33N 22°49' E 113°36'1614073.2
2014-Jul-30 03:33N 23°04' E 113°30'652469264.5
2014-Jul-30 03:33N 32°02' E 120°24'6564025.1
2014-Jul-30 03:23N 23°02' E 113°24'5 6.1
2014-Jul-30 02:33N 23°04' E 113°29'65654928.4
2014-Jul-30 02:33N 31°21' E 121°31'660216066.6
2014-Jul-30 02:32N 23°02' E 113°24'2346432.0
2014-Jul-30 02:30N 23°46' E 117°35'511108284.1
2014-Jul-30 02:30N 31°57' E 120°18'6575096.9
2014-Jul-30 02:22N 22°54' E 113°21'1215.3
2014-Jul-30 01:33N 23°04' E 113°29'98641256.8
2014-Jul-30 01:32N 39°05' E 117°44'98590959.7
2014-Jul-30 01:31N 23°04' E 113°29'1268.6
2014-Jul-30 01:21N 22°53' E 113°31'2304626.0
2014-Jul-30 01:18N 23°46' E 117°35'2102485.3
2014-Jul-30 01:13N 22°19' E 114°08'10231534.7
2014-Jul-30 00:33N 39°04' E 117°47'98556300.6
2014-Jul-30 00:32N 23°04' E 113°29'055.2
2014-Jul-30 00:32N 23°04' E 113°29'2309499.1
2014-Jul-30 00:30N 23°46' E 117°35'918970.9
2014-Jul-29 23:33N 39°04' E 117°48'985709415.6
2014-Jul-29 23:33N 23°04' E 113°29'451690.5
2014-Jul-29 23:32N 22°25' E 113°54'4518186.7
2014-Jul-29 23:32N 23°04' E 113°29'6566298.0
2014-Jul-29 23:25N 31°21' E 121°31'6712184.9
2014-Jul-29 23:07N 22°19' E 114°08'21015419.1
2014-Jul-29 23:06N 23°46' E 117°35'229420.2
2014-Jul-29 22:33N 23°04' E 113°29'986709677.3
2014-Jul-29 22:33N 39°05' E 117°47'98538146.0
2014-Jul-29 22:32N 23°04' E 113°29'58957.9
2014-Jul-29 22:28N 22°19' E 114°08'67455124.1
2014-Jul-29 22:27N 31°24' E 121°31'50411121.5
2014-Jul-29 22:25N 23°46' E 117°35'229268.1
2014-Jul-29 21:33N 23°04' E 113°29'22618945.7
2014-Jul-29 21:33N 23°40' E 117°33'22713152.6
2014-Jul-29 21:32N 23°04' E 113°29'584859.6
2014-Jul-29 21:31N 22°19' E 114°08'5860.1
2014-Jul-29 20:33N 23°04' E 113°29'22118497.4
2014-Jul-29 20:33N 23°36' E 117°27'19929894.1
2014-Jul-29 20:32N 22°19' E 114°08'585358.0
2014-Jul-29 20:32N 23°04' E 113°29'0 0.4
2014-Jul-29 19:33N 23°04' E 113°29'013.4
2014-Jul-29 19:32N 23°04' E 113°29'6585346.9
2014-Jul-29 19:24N 31°28' E 121°25'658776.5
2014-Jul-29 18:33N 23°04' E 113°29'58487.7
2014-Jul-29 18:26N 22°19' E 114°08'58950.8
2014-Jul-29 18:23N 23°04' E 113°29'6589748.3
2014-Jul-29 18:19N 31°28' E 121°25'658867.1
2014-Jul-29 17:33N 23°04' E 113°29'63995867.9
2014-Jul-29 17:33N 32°03' E 119°57'63937712.7
2014-Jul-29 17:32N 23°04' E 113°29'0 0.4
2014-Jul-29 16:33N 23°04' E 113°29'63734734.6
2014-Jul-29 16:32N 31°60' E 119°57'63765489.6
2014-Jul-29 16:32N 23°04' E 113°29'58528.1
2014-Jul-29 16:25N 22°19' E 114°08'6767414.4
2014-Jul-29 16:20N 31°31' E 121°25'57277.8
2014-Jul-29 16:07N 31°59' E 120°27'582111.8
2014-Jul-29 16:06N 31°28' E 121°25'3 5.9
2014-Jul-29 15:33N 31°27' E 121°28'6429011.7
2014-Jul-29 15:33N 31°58' E 120°22'651156340.0
2014-Jul-29 15:33N 22°58' E 113°30'6253.8
2014-Jul-29 15:32N 23°04' E 113°29'18610629.1
2014-Jul-29 15:31N 23°17' E 116°51'5482602.2
2014-Jul-29 15:18N 31°28' E 121°25'548736.8
2014-Jul-29 14:33N 23°21' E 116°44'18293441.5
2014-Jul-29 14:33N 22°54' E 113°28'3919938.0
2014-Jul-29 14:33N 22°24' E 113°54'66033953.8
2014-Jul-29 14:32N 31°59' E 119°57'636127284.6
2014-Jul-29 14:32N 23°04' E 113°29'640115202.6
2014-Jul-29 14:31N 31°56' E 120°11'68168.8
2014-Jul-29 14:07N 31°28' E 121°25'550971.5
2014-Jul-29 13:33N 23°23' E 116°34'54793850.0
2014-Jul-29 13:33N 31°59' E 119°57'63640912.9
2014-Jul-29 13:32N 23°04' E 113°29'6585560.6
2014-Jul-29 13:25N 31°28' E 121°25'0 0.0
2014-Jul-29 12:33N 31°28' E 121°25'811058.2
2014-Jul-29 12:28N 31°59' E 119°57'6366621.8
2014-Jul-29 12:23N 23°04' E 113°29'1 1.0
2014-Jul-29 11:33N 23°05' E 113°28'65887765.8
2014-Jul-29 11:33N 31°28' E 121°25'81623.5
2014-Jul-29 11:25N 31°59' E 119°57'439512.6
2014-Jul-29 10:33N 39°05' E 117°45'94411215.2
2014-Jul-29 10:28N 23°23' E 116°34'5473177.3
2014-Jul-29 10:18N 31°59' E 119°57'3039.9
2014-Jul-29 09:33N 32°01' E 120°33'44293662.4
2014-Jul-29 09:33N 39°03' E 117°52'94565412.4
2014-Jul-29 09:32N 23°21' E 116°39'9466354.3
2014-Jul-29 09:23N 39°05' E 117°44'0 0.1
2014-Jul-29 09:16N 39°05' E 117°44'3 3.6
2014-Jul-29 08:33N 39°04' E 117°47'947681964.2
2014-Jul-29 08:33N 23°19' E 116°46'947487109.7
2014-Jul-29 08:33N 39°04' E 117°47'31150.8
2014-Jul-29 08:33N 39°04' E 117°50'441176311.2
2014-Jul-29 08:33N 32°02' E 120°27'440444.1
2014-Jul-29 07:33N 39°03' E 117°50'413955.6
2014-Jul-29 07:33N 39°05' E 117°46'439315872.0
2014-Jul-29 07:33N 31°59' E 119°57'224088.6
2014-Jul-29 07:33N 31°60' E 120°23'693421.1
2014-Jul-29 07:32N 31°21' E 121°31'918.8
2014-Jul-29 07:04N 31°28' E 121°25'80158.7
2014-Jul-29 06:33N 31°59' E 119°57'43979098.5
2014-Jul-29 06:33N 39°05' E 117°44'44440986.5
2014-Jul-29 06:32N 31°57' E 120°09'585.5
2014-Jul-29 06:29N 31°56' E 120°15'6727013.1
2014-Jul-29 06:23N 22°17' E 113°50'10271243.7
2014-Jul-29 05:33N 39°04' E 117°51'443199135.3
2014-Jul-29 05:33N 31°57' E 120°13'645193390.3
2014-Jul-29 05:33N 23°03' E 113°25'5327208.5
2014-Jul-29 05:33N 22°14' E 113°45'6774377.6
2014-Jul-29 05:24N 31°57' E 120°12'3122982.8
2014-Jul-29 05:17N 26°46' E 119°43'314428.6
2014-Jul-29 04:34N 31°58' E 120°18'441529557.9
2014-Jul-29 04:33N 39°03' E 117°51'44231188.3
2014-Jul-29 04:33N 31°57' E 120°12'68411302.7
2014-Jul-29 04:29N 22°10' E 113°35'69180221.4
2014-Jul-29 04:28N 31°15' E 121°31'8232.8
2014-Jul-29 04:26N 31°23' E 121°32'8121.9
2014-Jul-29 04:22N 31°28' E 121°25'1215.1
2014-Jul-29 03:33N 31°18' E 121°33'7317520.0
2014-Jul-29 03:33N 31°60' E 120°23'44476178.5
2014-Jul-29 03:33N 39°05' E 117°44'4459774.6
2014-Jul-29 03:30N 31°57' E 120°12'78805.7
2014-Jul-29 03:24N 31°20' E 121°33'11135.2
2014-Jul-29 03:19N 31°28' E 121°25'488640.0
2014-Jul-29 02:33N 39°04' E 117°49'1018166535.9
2014-Jul-29 02:33N 22°26' E 113°53'673201975.9
2014-Jul-29 02:33N 32°02' E 120°26'124951.6
2014-Jul-29 02:33N 31°57' E 120°13'751756.1
2014-Jul-29 02:30N 31°21' E 121°31'6642498.7
2014-Jul-29 02:14N 22°54' E 113°28'666981.5
2014-Jul-29 01:34N 31°23' E 121°30'494592617.3
2014-Jul-29 01:33N 39°04' E 117°51'443199218.9
2014-Jul-29 01:33N 31°57' E 120°15'1577.8
2014-Jul-29 01:22N 32°02' E 120°32'635694.4
2014-Jul-29 01:21N 31°24' E 121°31'66428801.7
2014-Jul-29 01:20N 22°56' E 113°30'663856.1
2014-Jul-29 00:33N 32°01' E 120°36'1552883.4
2014-Jul-29 00:33N 31°59' E 120°19'661635.3
2014-Jul-29 00:31N 31°27' E 121°27'6608665.5
2014-Jul-29 00:26N 23°02' E 113°31'6382433.8
2014-Jul-29 00:11N 31°59' E 119°57'2133.3
2014-Jul-28 23:33N 32°00' E 120°22'64938302.2
2014-Jul-28 23:32N 23°04' E 113°29'660791773.9
2014-Jul-28 23:32N 31°58' E 120°47'51966695.3
2014-Jul-28 23:32N 23°45' E 117°44'52020565.8
2014-Jul-28 23:30N 32°00' E 120°41'37605.6
2014-Jul-28 23:27N 31°59' E 119°57'321458.8
2014-Jul-28 23:25N 31°60' E 120°35'65611.2
2014-Jul-28 23:19N 31°15' E 121°30'6179.8
2014-Jul-28 22:33N 31°60' E 120°41'132186.5
2014-Jul-28 22:33N 32°01' E 120°25'652234637.2
2014-Jul-28 22:32N 23°04' E 113°29'6545562.9
2014-Jul-28 22:25N 32°02' E 120°28'6743766.5
2014-Jul-28 22:15N 22°27' E 113°53'682988.5
2014-Jul-28 21:33N 31°59' E 120°51'2313552.4
2014-Jul-28 21:33N 32°00' E 120°24'517630.4
2014-Jul-28 21:33N 32°02' E 120°29'41082.1
2014-Jul-28 21:33N 32°01' E 120°33'65511286.5
2014-Jul-28 21:29N 23°04' E 113°29'6365713.8
2014-Jul-28 21:23N 31°59' E 119°57'3137.1
2014-Jul-28 20:33N 32°01' E 120°34'6563239.3
2014-Jul-28 20:20N 23°04' E 113°29'0 0.0
2014-Jul-28 19:32N 23°04' E 113°29'658124729.4
2014-Jul-28 19:32N 32°00' E 120°40'36282.4
2014-Jul-28 19:24N 31°59' E 119°57'0 0.0
2014-Jul-28 18:32N 31°59' E 119°57'421188.6
2014-Jul-28 18:30N 31°57' E 120°47'66053975.6
2014-Jul-28 18:29N 23°04' E 113°29'636675.1
2014-Jul-28 17:33N 31°59' E 119°57'63688125.3
2014-Jul-28 17:32N 23°04' E 113°29'636636.5
2014-Jul-28 16:32N 31°59' E 119°57'89322.0
2014-Jul-28 16:16N 31°21' E 121°32'656907.5
2014-Jul-28 15:32N 23°04' E 113°29'66062488.5
2014-Jul-28 15:32N 31°23' E 121°34'906470.0
2014-Jul-28 15:31N 31°59' E 119°57'645669.9
2014-Jul-28 14:33N 22°54' E 113°28'3857489.9
2014-Jul-28 14:30N 26°08' E 119°34'33516763.4
2014-Jul-28 14:29N 31°28' E 121°28'66013491.8
2014-Jul-28 14:26N 23°04' E 113°29'6361713.7
2014-Jul-28 14:04N 31°59' E 119°57'6421222.3
2014-Jul-28 13:32N 22°57' E 113°30'66479738.9
2014-Jul-28 13:32N 31°25' E 121°32'6607003.9
2014-Jul-28 13:26N 23°04' E 113°29'655745.8
2014-Jul-28 12:33N 31°22' E 121°28'6730185.2
2014-Jul-28 12:33N 31°59' E 120°22'648777834.7
2014-Jul-28 12:33N 23°04' E 113°30'3372.5
2014-Jul-28 12:33N 23°05' E 113°26'442932.1
2014-Jul-28 12:32N 22°21' E 113°18'4445.3
2014-Jul-28 11:34N 23°04' E 113°30'662183356.6
2014-Jul-28 11:33N 32°00' E 120°48'241872.5
2014-Jul-28 11:33N 31°59' E 120°20'44421911.1
2014-Jul-28 11:31N 39°05' E 117°44'98927589.6
2014-Jul-28 11:29N 23°02' E 113°24'6 6.0
2014-Jul-28 10:34N 23°04' E 113°30'9861182796.6
2014-Jul-28 10:33N 39°05' E 117°46'858134336.9
2014-Jul-28 10:33N 24°49' E 118°58'32421194.1
2014-Jul-28 10:32N 23°02' E 113°24'3896.0
2014-Jul-28 10:08N 22°24' E 113°19'69212086.6
2014-Jul-28 10:05N 32°02' E 120°27'6531241.9
2014-Jul-28 09:33N 23°04' E 113°30'625.1
2014-Jul-28 09:20N 23°02' E 113°24'64423432.5
2014-Jul-28 09:19N 31°57' E 120°10'640852.5
2014-Jul-28 08:33N 23°04' E 113°30'64240545.5
2014-Jul-28 08:33N 31°57' E 120°14'647101198.6
2014-Jul-28 08:32N 23°02' E 113°24'65869692.6
2014-Jul-28 08:32N 31°21' E 121°27'49910197.8
2014-Jul-28 08:29N 39°05' E 117°44'443481.5
2014-Jul-28 07:33N 32°02' E 120°26'44054651.0
2014-Jul-28 07:33N 39°03' E 117°50'9853545249.4
2014-Jul-28 07:33N 23°04' E 113°30'6544046.7
2014-Jul-28 07:23N 31°21' E 121°27'65912966.4
2014-Jul-28 07:20N 23°02' E 113°24'6 7.1
2014-Jul-28 06:33N 23°04' E 113°30'985709225.9
2014-Jul-28 06:33N 39°03' E 117°51'49548135.3
2014-Jul-28 06:33N 31°21' E 121°27'69388.0
2014-Jul-28 06:22N 31°57' E 120°18'6498286.5
2014-Jul-28 06:17N 23°02' E 113°24'6573430.4
2014-Jul-28 06:06N 32°02' E 120°27'6531209.0
2014-Jul-28 05:33N 23°04' E 113°30'985161220.8
2014-Jul-28 05:33N 39°04' E 117°47'98880870.1
2014-Jul-28 05:32N 23°02' E 113°24'65941628.9
2014-Jul-28 05:31N 31°21' E 121°27'67443.2
2014-Jul-28 05:22N 31°60' E 120°23'12251.8
2014-Jul-28 05:19N 31°56' E 120°10'639832.3
2014-Jul-28 04:33N 23°04' E 113°30'6303.3
2014-Jul-28 04:32N 23°02' E 113°24'65921376.7
2014-Jul-28 04:30N 31°21' E 121°27'71586.4
2014-Jul-28 04:23N 31°56' E 120°14'6503306.9
2014-Jul-28 04:11N 22°51' E 113°34'21214.2
2014-Jul-28 04:05N 23°04' E 113°16'1323.5
2014-Jul-28 03:33N 23°04' E 113°30'654147198.0
2014-Jul-28 03:32N 31°21' E 121°27'66028981.6
2014-Jul-28 03:31N 23°02' E 113°22'262.9
2014-Jul-28 03:29N 23°02' E 113°24'9881062.9
2014-Jul-28 02:33N 39°04' E 117°48'985443269.8
2014-Jul-28 02:33N 23°04' E 113°30'9902.2
2014-Jul-28 02:33N 23°03' E 113°20'661594731.7
2014-Jul-28 02:33N 31°21' E 121°27'65911688.7
2014-Jul-28 02:29N 23°02' E 113°24'9881065.4
2014-Jul-28 01:34N 39°04' E 117°50'495594078.7
2014-Jul-28 01:33N 31°21' E 121°27'654196264.0
2014-Jul-28 01:33N 23°04' E 113°30'6303.5
2014-Jul-28 01:32N 23°02' E 113°24'64516025.5
2014-Jul-28 01:30N 31°57' E 120°12'1276.4
2014-Jul-28 01:20N 31°59' E 119°58'637814.1
2014-Jul-28 00:33N 23°04' E 113°29'655235626.5
2014-Jul-28 00:33N 31°21' E 121°27'855304.5
2014-Jul-28 00:32N 31°59' E 119°58'64054843.1
2014-Jul-28 00:31N 23°03' E 113°25'6453189.5
2014-Jul-28 00:19N 31°55' E 120°15'642836.1
2014-Jul-27 23:33N 23°04' E 113°29'65526474.7
2014-Jul-27 23:32N 31°21' E 121°27'41587979.0
2014-Jul-27 23:31N 24°45' E 119°05'324333.4
2014-Jul-27 22:33N 23°04' E 113°29'65518265.6
2014-Jul-27 22:31N 31°21' E 121°27'4204509.5
2014-Jul-27 22:26N 24°42' E 119°01'4381875.2
2014-Jul-27 22:11N 31°55' E 120°15'6421006.6
2014-Jul-27 21:33N 23°04' E 113°29'64126234.5
2014-Jul-27 21:32N 31°56' E 120°14'7110712.3
2014-Jul-27 21:31N 31°21' E 121°27'0 0.0
2014-Jul-27 20:33N 31°21' E 121°27'655196355.4
2014-Jul-27 20:33N 23°04' E 113°29'6836155762.8
2014-Jul-27 20:31N 33°28' W 117°42'61651849480.5
2014-Jul-27 20:30N 31°56' E 120°14'641673.1
2014-Jul-27 19:33N 23°04' E 113°29'655196353.9
2014-Jul-27 19:33N 31°21' E 121°27'714285.1
2014-Jul-27 19:32N 31°56' E 120°14'15275.2
2014-Jul-27 19:29N 31°60' E 119°57'618234773.9
2014-Jul-27 19:18N 33°11' W 117°46'655855680.7
2014-Jul-27 19:11N 23°55' E 118°15'478758.9
2014-Jul-27 18:33N 31°21' E 121°27'655294542.3
2014-Jul-27 18:33N 23°04' E 113°29'64151304.6
2014-Jul-27 18:32N 31°56' E 120°14'48976468.0
2014-Jul-27 18:32N 23°58' E 118°17'655557699.9
2014-Jul-27 18:25N 32°57' W 117°52'618551779.8
2014-Jul-27 18:18N 31°60' E 119°57'61918287.9
2014-Jul-27 17:33N 32°52' W 117°48'6846560116.7
2014-Jul-27 17:33N 23°04' E 113°29'65562063.0
2014-Jul-27 17:32N 31°22' E 121°28'726990.7
2014-Jul-27 17:31N 31°56' E 120°14'15262.7
2014-Jul-27 17:28N 31°60' E 119°57'637691.3
2014-Jul-27 16:33N 23°04' E 113°29'641115432.6
2014-Jul-27 16:32N 31°56' E 120°14'731853.6
2014-Jul-27 16:30N 31°24' E 121°31'87793.3
2014-Jul-27 16:23N 31°60' E 119°57'619141351.6
2014-Jul-27 16:14N 32°50' W 117°49'61338880.7
2014-Jul-27 15:33N 31°24' E 121°31'7252151.5
2014-Jul-27 15:33N 31°56' E 120°14'641230863.5
2014-Jul-27 15:33N 23°04' E 113°29'6839279762.7
2014-Jul-27 15:31N 32°50' W 117°58'6184654769.7
2014-Jul-27 15:31N 31°60' E 119°57'5413423647.6
2014-Jul-27 15:30N 49°22' W 123°18'5860753427.9
2014-Jul-27 15:30N 24°24' E 118°39'298318.7
2014-Jul-27 14:33N 23°04' E 113°26'64372318.4
2014-Jul-27 14:33N 31°56' E 120°14'1552281.1
2014-Jul-27 14:33N 31°60' E 119°57'5407926977.2
2014-Jul-27 14:33N 49°27' W 123°23'5368153357.2
2014-Jul-27 14:30N 31°24' E 121°31'61193.0
2014-Jul-27 14:11N 32°01' E 120°33'1726.3
2014-Jul-27 13:33N 31°56' E 120°14'6153738383.8
2014-Jul-27 13:32N 32°47' W 118°22'6106457947.3
2014-Jul-27 13:32N 31°24' E 121°31'872978.4
2014-Jul-27 13:30N 31°60' E 119°57'26893.3
2014-Jul-27 13:28N 32°02' E 120°28'17517464.8
2014-Jul-27 13:28N 34°49' E 119°26'228560.2
2014-Jul-27 13:03N 31°26' E 121°30'1 2.9
2014-Jul-27 12:33N 31°26' E 121°28'225811215.2
2014-Jul-27 12:33N 34°48' E 119°29'17737461.8
2014-Jul-27 12:33N 31°56' E 120°14'733909.4
2014-Jul-27 12:32N 31°25' E 121°31'87482.9
2014-Jul-27 12:21N 31°60' E 119°57'476598.0
2014-Jul-27 11:34N 24°12' E 118°21'4602885.8
2014-Jul-27 11:24N 31°21' E 121°27'465545.5
2014-Jul-27 10:33N 24°08' E 118°17'4654596.7
2014-Jul-27 10:27N 31°21' E 121°27'469528.3
2014-Jul-27 09:34N 24°05' E 118°13'4694049.3
2014-Jul-27 09:27N 31°21' E 121°27'473531.6
2014-Jul-27 08:33N 24°02' E 118°10'48518765.1
2014-Jul-27 08:32N 31°55' E 120°08'75783.2
2014-Jul-27 08:26N 31°21' E 121°27'49829411.2
2014-Jul-27 08:25N 39°05' E 117°44'1 9.8
2014-Jul-27 08:20N 39°05' E 117°45'1 1.3
2014-Jul-27 07:34N 39°05' E 117°46'4610.3
2014-Jul-27 07:33N 39°03' E 117°51'494118659.8
2014-Jul-27 07:33N 31°21' E 121°27'49840774.7
2014-Jul-27 07:32N 39°05' E 117°44'90611097.9
2014-Jul-27 07:27N 23°59' E 118°07'9061011.7
2014-Jul-27 06:34N 39°05' E 117°47'41037.9
2014-Jul-27 06:33N 39°03' E 117°51'494118604.8
2014-Jul-27 06:33N 31°21' E 121°27'65487218.5
2014-Jul-27 06:33N 23°04' E 113°29'98517303.7
2014-Jul-27 06:29N 39°05' E 117°44'44550114.9
2014-Jul-27 06:29N 31°56' E 120°09'44525455.2
2014-Jul-27 06:28N 39°05' E 117°44'9093023.8
2014-Jul-27 06:10N 23°56' E 118°04'9091512.3
2014-Jul-27 05:33N 39°05' E 117°46'159.8
2014-Jul-27 05:32N 39°05' E 117°44'0 0.0
2014-Jul-27 05:31N 39°05' E 117°44'44249674.1
2014-Jul-27 05:31N 31°58' E 120°01'83561.9
2014-Jul-27 05:22N 31°23' E 121°30'6639012.1
2014-Jul-27 05:17N 23°03' E 113°19'9891356.9
2014-Jul-27 04:34N 39°05' E 117°47'1429.5
2014-Jul-27 04:33N 39°05' E 117°46'98932357.5
2014-Jul-27 04:32N 23°02' E 113°24'988711690.7
2014-Jul-27 04:31N 39°04' E 117°48'4972842.0
2014-Jul-27 04:21N 31°21' E 121°27'86684.0
2014-Jul-27 04:14N 31°60' E 119°57'439657.8
2014-Jul-27 03:33N 39°05' E 117°45'986506971.7
2014-Jul-27 03:33N 23°04' E 113°30'986394432.9
2014-Jul-27 03:33N 39°05' E 117°46'010.8
2014-Jul-27 03:33N 39°05' E 117°46'9873552759.1
2014-Jul-27 03:33N 23°04' E 113°25'65794596.6
2014-Jul-27 03:33N 31°21' E 121°27'49833850.3
2014-Jul-27 03:32N 39°05' E 117°44'43915202.7
2014-Jul-27 03:30N 31°60' E 119°57'63669432.1
2014-Jul-27 03:30N 23°04' E 113°29'681677403.7
2014-Jul-27 03:24N 32°49' W 118°24'655543139.3
2014-Jul-27 03:15N 23°50' E 117°55'9131314.7
2014-Jul-27 02:33N 39°03' E 117°51'43489.2
2014-Jul-27 02:33N 39°04' E 117°47'9921785385.0
2014-Jul-27 02:33N 22°57' E 113°33'68174908395.3
2014-Jul-27 02:33N 32°49' W 118°24'65582951231.9
2014-Jul-27 02:33N 23°47' E 117°53'917825038.2
2014-Jul-27 02:33N 39°04' E 117°47'49681236.0
2014-Jul-27 02:33N 31°21' E 121°27'498448227.5
2014-Jul-27 02:33N 39°05' E 117°44'44917003.4
2014-Jul-27 02:31N 31°60' E 120°41'65826329.8
2014-Jul-27 02:30N 23°04' E 113°29'0 4.3
2014-Jul-27 02:24N 23°04' E 113°29'241287.1
2014-Jul-27 01:34N 23°44' E 117°48'9201103474.9
2014-Jul-27 01:33N 39°04' E 117°51'1460.9
2014-Jul-27 01:33N 39°04' E 117°51'54589.4
2014-Jul-27 01:33N 39°05' E 117°45'4461604229.1
2014-Jul-27 01:33N 32°01' E 120°33'44659487.8
2014-Jul-27 01:33N 39°05' E 117°44'98610051.3
2014-Jul-27 01:27N 23°04' E 113°29'681627882.8
2014-Jul-27 01:12N 32°49' W 118°24'610855811.9
2014-Jul-27 01:06N 31°21' E 121°27'654214085.4
2014-Jul-27 01:06N 23°04' E 113°29'6521219.1
2014-Jul-27 00:33N 32°01' E 120°26'61377364810.6
2014-Jul-27 00:33N 32°49' W 118°24'60267231691.8
2014-Jul-27 00:33N 39°05' E 117°46'1490.8
2014-Jul-27 00:33N 39°04' E 117°47'444798391.7
2014-Jul-27 00:33N 31°58' E 120°17'7013206.4
2014-Jul-27 00:33N 31°21' E 121°27'501601234.2
2014-Jul-27 00:33N 23°41' E 117°44'23750251.4
2014-Jul-27 00:33N 23°04' E 113°29'0 2.9
2014-Jul-27 00:24N 23°04' E 113°29'649771.8
2014-Jul-26 23:33N 31°60' E 120°22'64943253.3
2014-Jul-26 23:33N 23°04' E 113°29'64651690.6
2014-Jul-26 23:32N 31°58' E 120°20'6150738013.8
2014-Jul-26 23:31N 32°50' W 118°17'6822153490.9
2014-Jul-26 23:29N 23°04' E 113°29'12129.1
2014-Jul-26 23:23N 22°52' E 113°33'2327580.4
2014-Jul-26 23:21N 23°37' E 117°40'5172840.3
2014-Jul-26 23:10N 31°60' E 119°57'2540.8
2014-Jul-26 22:34N 32°02' E 120°27'529951577.2
2014-Jul-26 22:34N 23°35' E 117°37'519169915.7
2014-Jul-26 22:33N 31°56' E 120°13'650137687.0
2014-Jul-26 22:33N 22°55' E 113°27'68341892550.0
2014-Jul-26 22:33N 32°55' W 118°09'68261445527.2
2014-Jul-26 22:33N 23°04' E 113°29'6365279.5
2014-Jul-26 22:25N 31°60' E 119°57'64613916.6
2014-Jul-26 22:23N 22°55' E 113°27'515128.9
2014-Jul-26 22:22N 22°19' E 114°07'57221.9
2014-Jul-26 22:07N 23°04' E 113°30'6551188.1
2014-Jul-26 21:33N 32°02' E 120°32'614322114565.9
2014-Jul-26 21:33N 32°58' W 118°05'6829472776.8
2014-Jul-26 21:33N 23°04' E 113°29'1 2.5
2014-Jul-26 21:19N 23°04' E 113°30'6363749.4
2014-Jul-26 21:08N 31°60' E 119°57'617810632.0
2014-Jul-26 20:33N 32°59' W 117°59'6834439324.8
2014-Jul-26 20:33N 23°04' E 113°29'117.4
2014-Jul-26 20:31N 23°04' E 113°30'6379469.0
2014-Jul-26 20:27N 31°60' E 119°57'2 6.2
2014-Jul-26 20:06N 31°59' E 119°59'6371127.7
2014-Jul-26 19:33N 23°04' E 113°29'117.5
2014-Jul-26 19:31N 23°04' E 113°30'63811153.4
2014-Jul-26 19:27N 32°02' E 119°56'618175948.6
2014-Jul-26 19:22N 32°59' W 117°54'68388260.7
2014-Jul-26 18:33N 23°04' E 113°29'6838512863.6
2014-Jul-26 18:32N 32°58' W 117°54'6838337205.7
2014-Jul-26 18:31N 23°04' E 113°30'6545960.1
2014-Jul-26 18:24N 31°21' E 121°27'2 2.3
2014-Jul-26 17:33N 31°22' E 121°29'599359516.4
2014-Jul-26 17:33N 23°04' E 115°14'962865.9
2014-Jul-26 17:31N 23°04' E 113°30'1694652.3
2014-Jul-26 17:28N 23°26' E 116°32'6665571245.0
2014-Jul-26 17:28N 32°58' W 117°54'684226891.6
2014-Jul-26 17:12N 22°52' E 113°34'173265.5
2014-Jul-26 16:33N 23°20' E 116°39'6662311450.3
2014-Jul-26 16:32N 33°01' W 117°53'6838267559.8
2014-Jul-26 16:31N 23°04' E 113°30'1 3.9
2014-Jul-26 16:21N 23°04' E 113°29'182231.8
2014-Jul-26 15:33N 23°18' E 116°47'6657149772.9
2014-Jul-26 15:31N 33°03' W 117°51'6839367455.5
2014-Jul-26 15:30N 23°04' E 113°29'119.5
2014-Jul-26 15:28N 23°04' E 113°30'68387572.0
2014-Jul-26 14:33N 33°06' W 117°50'65822369434.2
2014-Jul-26 14:33N 23°51' E 117°49'24323047.6
2014-Jul-26 14:33N 23°04' E 113°29'120.2
2014-Jul-26 14:31N 23°04' E 113°30'237245.3
2014-Jul-26 13:33N 23°46' E 117°44'65901395476.9
2014-Jul-26 13:32N 33°06' W 117°49'683989524.0
2014-Jul-26 13:28N 23°04' E 113°30'970.7
2014-Jul-26 13:20N 23°03' E 113°20'241312.0
2014-Jul-26 12:33N 23°43' E 117°38'659611872457.9
2014-Jul-26 12:33N 33°16' W 117°45'6844127664.4
2014-Jul-26 12:30N 23°02' E 113°24'6508.2
2014-Jul-26 12:30N 23°04' E 113°29'6542367.9
2014-Jul-26 12:13N 31°21' E 121°28'496753.1
2014-Jul-26 11:33N 39°04' E 117°48'49681181.5
2014-Jul-26 11:33N 31°22' E 121°29'6121648122.1
2014-Jul-26 11:33N 33°27' W 117°42'6508111029.7
2014-Jul-26 11:29N 22°31' E 120°07'37317887.9
2014-Jul-26 11:28N 23°02' E 113°24'6425464.9
2014-Jul-26 11:21N 31°59' E 120°02'638459160.8
2014-Jul-26 11:21N 23°04' E 113°29'9851247.4
2014-Jul-26 10:33N 39°03' E 117°50'9991797980.4
2014-Jul-26 10:33N 22°32' E 120°14'37533740.6
2014-Jul-26 10:33N 23°04' E 113°29'19045663.7
2014-Jul-26 10:32N 23°06' E 116°56'55741806.2
2014-Jul-26 10:31N 31°58' E 120°05'7915737.6
2014-Jul-26 10:31N 31°26' E 121°29'6592673.5
2014-Jul-26 10:16N 23°04' E 113°29'532.7
2014-Jul-26 10:07N 23°02' E 113°24'5 8.5
2014-Jul-26 09:30N 23°04' E 113°29'5156.0
2014-Jul-26 09:28N 23°02' E 113°24'64534660.0
2014-Jul-26 09:27N 31°57' E 120°11'6412123.6
2014-Jul-26 09:09N 23°04' E 113°29'6431093.6
2014-Jul-26 08:33N 31°57' E 120°15'64379840.4
2014-Jul-26 08:33N 23°04' E 113°29'98638988.6
2014-Jul-26 08:31N 39°05' E 117°44'98534439.8
2014-Jul-26 08:30N 23°04' E 113°29'528.6
2014-Jul-26 08:19N 23°02' E 113°24'2 3.2
2014-Jul-26 07:33N 23°02' E 113°21'989136946.1
2014-Jul-26 07:33N 39°05' E 117°47'98880862.1
2014-Jul-26 07:32N 23°01' E 113°31'9888253.6
2014-Jul-26 07:25N 39°05' E 117°44'98513187.0
2014-Jul-26 07:21N 23°04' E 113°29'64913349.9
2014-Jul-26 07:18N 31°60' E 120°23'681106.4
2014-Jul-26 07:14N 31°25' E 121°32'6645536.4
2014-Jul-26 07:07N 23°02' E 113°24'9891762.7
2014-Jul-26 06:33N 39°05' E 117°45'985107490.8
2014-Jul-26 06:33N 23°04' E 113°29'98539414.2
2014-Jul-26 06:31N 39°05' E 117°44'99626552.6
2014-Jul-26 06:29N 22°53' E 113°31'33134.4
2014-Jul-26 06:14N 22°27' E 113°53'1018101781.2
2014-Jul-26 06:13N 39°05' E 117°44'9898942.0
2014-Jul-26 06:07N 23°02' E 113°24'3 4.6
2014-Jul-26 05:33N 23°04' E 113°25'658591912.8
2014-Jul-26 05:33N 32°02' E 120°33'44548592.1
2014-Jul-26 05:33N 39°05' E 117°44'985177364.9
2014-Jul-26 05:33N 23°04' E 113°29'98572396.0
2014-Jul-26 05:32N 39°05' E 117°44'0 0.8
2014-Jul-26 05:28N 39°05' E 117°44'0 0.0
2014-Jul-26 05:04N 39°05' E 117°44'2 4.6
2014-Jul-26 04:34N 39°05' E 117°47'447146167.5
2014-Jul-26 04:33N 32°00' E 120°38'448805798.0
2014-Jul-26 04:33N 39°05' E 117°44'2390.4
2014-Jul-26 04:33N 39°05' E 117°46'986110878.3
2014-Jul-26 04:33N 23°04' E 113°29'985197075.6
2014-Jul-26 04:32N 39°05' E 117°44'98511155.8
2014-Jul-26 04:27N 23°04' E 113°29'6452569.5
2014-Jul-26 04:12N 31°57' E 120°19'445691.1
2014-Jul-26 03:33N 39°05' E 117°47'1719.6
2014-Jul-26 03:33N 39°04' E 117°48'32707.9
2014-Jul-26 03:33N 39°05' E 117°44'046.4
2014-Jul-26 03:33N 39°05' E 117°44'44650202.1
2014-Jul-26 03:32N 31°56' E 120°14'266638.5
2014-Jul-26 03:32N 32°01' E 120°43'6615159.2
2014-Jul-26 03:24N 23°04' E 113°29'0 0.5
2014-Jul-26 03:12N 23°04' E 113°29'9851531.9
2014-Jul-26 02:33N 39°04' E 117°47'31977.8
2014-Jul-26 02:33N 39°03' E 117°51'12613.6
2014-Jul-26 02:33N 39°04' E 117°51'6439.4
2014-Jul-26 02:32N 39°05' E 117°44'44916661.0
2014-Jul-26 02:31N 32°01' E 120°45'6629125.7
2014-Jul-26 02:27N 23°04' E 113°29'6386288.4
2014-Jul-26 02:20N 31°57' E 120°03'63814620.3
2014-Jul-26 02:18N 23°04' E 113°29'9851333.0
2014-Jul-26 01:33N 39°03' E 117°51'43098.9
2014-Jul-26 01:33N 39°05' E 117°46'415026.8
2014-Jul-26 01:33N 39°03' E 117°51'14670.9
2014-Jul-26 01:33N 39°04' E 117°50'98526082.4
2014-Jul-26 01:31N 23°04' E 113°29'66233081.2
2014-Jul-26 01:30N 32°01' E 120°45'6622145.8
2014-Jul-26 01:11N 23°04' E 113°29'9851558.4
2014-Jul-26 00:33N 39°05' E 117°44'1211.9
2014-Jul-26 00:33N 39°05' E 117°45'157.5
2014-Jul-26 00:32N 39°05' E 117°44'9856508.0
2014-Jul-26 00:23N 23°04' E 113°29'0 5.4
2014-Jul-26 00:22N 23°04' E 113°29'9861216.3
2014-Jul-25 23:33N 39°04' E 117°51'444319550.8
2014-Jul-25 23:33N 32°01' E 120°33'6556998.6
2014-Jul-25 23:28N 23°04' E 113°29'0 1.4
2014-Jul-25 23:22N 23°04' E 113°29'652806.3
2014-Jul-25 22:33N 32°01' E 120°27'44363801.3
2014-Jul-25 22:33N 39°05' E 117°46'98511119.0
2014-Jul-25 22:28N 23°04' E 113°29'0 1.4
2014-Jul-25 22:22N 23°04' E 113°29'212.0
2014-Jul-25 22:12N 23°03' E 113°30'6491018.4
2014-Jul-25 21:33N 31°58' E 120°24'64917043.9
2014-Jul-25 21:31N 23°04' E 113°29'0 1.2
2014-Jul-25 21:25N 23°04' E 113°29'44861.8
2014-Jul-25 21:22N 22°26' E 113°53'4448.6
2014-Jul-25 20:28N 23°04' E 113°29'0 2.0
2014-Jul-25 20:24N 23°04' E 113°29'656755.5
2014-Jul-25 19:32N 31°60' E 120°35'65610130.9
2014-Jul-25 19:28N 23°04' E 113°29'1391.8
2014-Jul-25 19:19N 22°52' E 113°34'13110.5
2014-Jul-25 19:12N 23°04' E 113°29'0 1.8
2014-Jul-25 19:07N 23°04' E 113°29'6551020.8
2014-Jul-25 18:29N 32°00' E 120°34'65510163.5
2014-Jul-25 18:25N 23°04' E 113°29'0 7.4
2014-Jul-25 18:24N 23°04' E 113°29'0 5.1
2014-Jul-25 18:22N 23°04' E 113°29'655803.1
2014-Jul-25 17:33N 32°00' E 120°34'6554181.0
2014-Jul-25 17:24N 23°04' E 113°29'0 0.3
2014-Jul-25 17:07N 23°04' E 113°29'0 2.6
2014-Jul-25 17:04N 23°04' E 113°29'0 0.2
2014-Jul-25 16:29N 23°04' E 113°29'655124098.8
2014-Jul-25 16:29N 32°00' E 120°34'65558947.5
2014-Jul-25 16:28N 23°04' E 113°29'0 5.0
2014-Jul-25 16:27N 23°04' E 113°29'3233.2
2014-Jul-25 15:29N 22°36' E 113°46'32756.1
2014-Jul-25 15:26N 23°04' E 113°29'0 3.1
2014-Jul-25 15:23N 23°04' E 113°29'47228.6
2014-Jul-25 15:10N 22°24' E 113°54'4753.2
2014-Jul-25 14:18N 23°04' E 113°29'6594546.8
2014-Jul-25 14:09N 31°31' E 121°23'6751132.8
2014-Jul-25 13:33N 22°28' E 113°54'431696.4
2014-Jul-25 13:32N 23°04' E 113°29'6606922.5
2014-Jul-25 13:26N 31°29' E 121°27'66015832.0
2014-Jul-25 13:24N 23°04' E 113°29'659103207.4
2014-Jul-25 13:23N 31°32' E 121°23'51225.0
2014-Jul-25 13:10N 32°00' E 120°34'5590.6
2014-Jul-25 12:33N 31°29' E 121°27'675347190.0
2014-Jul-25 12:33N 22°28' E 113°54'41699.6
2014-Jul-25 12:30N 23°03' E 113°30'2476.0
2014-Jul-25 12:30N 23°04' E 113°29'6594642.3
2014-Jul-25 12:21N 31°24' E 121°32'674847.4
2014-Jul-25 11:33N 22°28' E 113°54'672142239.4
2014-Jul-25 11:33N 31°20' E 121°33'71149.5
2014-Jul-25 11:33N 31°26' E 121°29'6593988.7
2014-Jul-25 11:23N 23°04' E 113°29'9857038.2
2014-Jul-25 11:14N 39°05' E 117°44'98522452.2
2014-Jul-25 11:12N 23°04' E 113°29'65523579.6
2014-Jul-25 11:10N 32°00' E 120°34'65642913.1
2014-Jul-25 11:09N 23°03' E 113°30'2206.3
2014-Jul-25 11:09N 23°04' E 113°29'9851664.6
2014-Jul-25 10:33N 39°05' E 117°45'985186682.8
2014-Jul-25 10:33N 23°04' E 113°29'65023417.8
2014-Jul-25 10:31N 31°15' E 121°29'651146456.9
2014-Jul-25 10:31N 23°03' E 113°30'415440.1
2014-Jul-25 10:30N 22°28' E 113°54'433276.1
2014-Jul-25 10:30N 23°04' E 113°29'65552406.9
2014-Jul-25 10:29N 32°00' E 120°34'6556549.7
2014-Jul-25 10:23N 23°04' E 113°29'52511.9
2014-Jul-25 10:17N 22°13' E 113°35'44348.3
2014-Jul-25 10:09N 22°57' E 113°33'915.4
2014-Jul-25 09:33N 23°05' E 113°27'985590892.3
2014-Jul-25 09:33N 39°04' E 117°48'10163657752.4
2014-Jul-25 09:33N 22°28' E 113°54'43203.1
2014-Jul-25 09:21N 23°04' E 113°29'9856915.1
2014-Jul-25 09:12N 39°05' E 117°44'99328596.7
2014-Jul-25 09:10N 22°56' E 113°34'3354.1
2014-Jul-25 08:33N 22°28' E 113°54'1017110913.9
2014-Jul-25 08:33N 39°05' E 117°47'986506887.0
2014-Jul-25 08:33N 23°04' E 113°29'9857239.6
2014-Jul-25 08:25N 39°05' E 117°44'98515628.3
2014-Jul-25 08:21N 23°04' E 113°29'0 0.9
2014-Jul-25 08:14N 23°04' E 113°29'50288.7
2014-Jul-25 08:03N 22°15' E 113°35'2243.8
2014-Jul-25 07:33N 22°28' E 113°54'10173662519.5
2014-Jul-25 07:33N 39°05' E 117°51'2817.8
2014-Jul-25 07:33N 39°04' E 117°49'44372507.8
2014-Jul-25 07:33N 32°01' E 120°31'6947569.9
2014-Jul-25 07:27N 22°15' E 113°35'50652.6
2014-Jul-25 07:23N 23°04' E 113°29'019.6
2014-Jul-25 07:22N 23°04' E 113°29'034.7
2014-Jul-25 07:22N 23°04' E 113°29'9851210.5
2014-Jul-25 06:34N 39°04' E 117°47'31488.5
2014-Jul-25 06:33N 39°04' E 117°51'44199293.0
2014-Jul-25 06:33N 32°01' E 120°26'691414822.7
2014-Jul-25 06:33N 22°15' E 113°35'502370.1
2014-Jul-25 06:32N 23°04' E 113°29'0 1.5
2014-Jul-25 06:28N 23°04' E 113°29'432748.4
2014-Jul-25 06:27N 22°28' E 113°54'372154.2
2014-Jul-25 06:26N 22°59' E 113°33'616642199.8
2014-Jul-25 06:18N 49°28' W 123°22'6164270615.5
2014-Jul-25 06:16N 23°04' E 113°29'9851376.6
2014-Jul-25 05:33N 39°05' E 117°45'44522538.4
2014-Jul-25 05:32N 31°59' E 120°21'5391746492.7
2014-Jul-25 05:32N 49°26' W 123°22'61657397675.2
2014-Jul-25 05:32N 23°04' E 113°29'016.3
2014-Jul-25 05:31N 23°04' E 113°29'432653.6
2014-Jul-25 05:30N 22°28' E 113°54'36536.9
2014-Jul-25 05:26N 22°59' E 113°33'44490.2
2014-Jul-25 05:21N 22°15' E 113°35'0 0.0
2014-Jul-25 04:33N 22°15' E 113°35'62093193135.6
2014-Jul-25 04:33N 49°21' W 123°17'6170336569.0
2014-Jul-25 04:32N 23°04' E 113°29'432030.5
2014-Jul-25 04:30N 22°28' E 113°54'36528.3
2014-Jul-25 04:26N 22°59' E 113°33'696.3
2014-Jul-25 04:22N 23°04' E 113°29'0 5.5
2014-Jul-25 04:21N 23°04' E 113°29'9851254.8
2014-Jul-25 03:33N 39°05' E 117°45'1033132809.4
2014-Jul-25 03:33N 22°15' E 113°35'22539.6
2014-Jul-25 03:30N 22°28' E 113°54'433364.5
2014-Jul-25 03:30N 23°04' E 113°29'0 2.5
2014-Jul-25 03:26N 23°04' E 113°29'6154.9
2014-Jul-25 03:23N 22°59' E 113°33'684.0
2014-Jul-25 03:19N 23°04' E 113°30'4256.0
2014-Jul-25 02:34N 22°28' E 113°54'101779568.1
2014-Jul-25 02:33N 39°05' E 117°46'98632553.5
2014-Jul-25 02:31N 23°04' E 113°30'7348.0
2014-Jul-25 02:30N 23°02' E 113°22'523543.1
2014-Jul-25 02:29N 22°11' E 113°32'54526.6
2014-Jul-25 02:23N 23°04' E 113°29'98513695.6
2014-Jul-25 02:18N 39°05' E 117°44'10181340.1
2014-Jul-25 01:33N 22°27' E 113°53'201215.7
2014-Jul-25 01:32N 22°11' E 113°40'103614177.1
2014-Jul-25 01:27N 39°05' E 117°44'99013761.8
2014-Jul-25 01:23N 22°59' E 113°33'685.3
2014-Jul-25 01:19N 23°04' E 113°30'1 4.9
2014-Jul-25 01:11N 23°04' E 113°29'10290.0
2014-Jul-25 01:09N 22°56' E 113°34'3456.9
2014-Jul-25 00:33N 22°27' E 113°53'141353.5
2014-Jul-25 00:33N 22°15' E 113°47'1120193.2
2014-Jul-25 00:33N 22°14' E 113°35'501710.2
2014-Jul-25 00:31N 23°04' E 113°30'5232.0
2014-Jul-25 00:30N 22°60' E 113°32'1113.8
2014-Jul-25 00:29N 22°59' E 113°33'660.9
2014-Jul-25 00:23N 23°04' E 113°29'0 0.2
2014-Jul-24 23:34N 23°04' E 113°29'0 0.4
2014-Jul-24 23:14N 23°04' E 113°29'0 0.3
2014-Jul-24 22:33N 23°04' E 113°29'0 0.6
2014-Jul-24 22:23N 23°04' E 113°29'64111766.9
2014-Jul-24 22:20N 31°57' E 120°11'644838.1
2014-Jul-24 21:33N 23°03' E 113°25'434.0
2014-Jul-24 21:26N 23°04' E 113°29'0 2.1
2014-Jul-24 21:23N 23°04' E 113°29'0 0.1
2014-Jul-24 20:23N 23°04' E 113°29'5769.5
2014-Jul-24 19:33N 22°10' E 113°50'57462.1
2014-Jul-24 19:26N 23°04' E 113°29'6484818.3
2014-Jul-24 19:18N 31°60' E 120°20'6634212.3
2014-Jul-24 19:08N 22°45' E 113°31'203696.5
2014-Jul-24 19:08N 23°04' E 113°29'5594.4
2014-Jul-24 18:33N 22°12' E 113°46'687103007.0
2014-Jul-24 18:33N 32°00' E 120°24'6503895.5
2014-Jul-24 18:23N 23°04' E 113°29'43191.5
2014-Jul-24 18:09N 22°27' E 113°53'6751067.0
2014-Jul-24 17:31N 32°02' E 120°29'6551686.7
2014-Jul-24 17:08N 23°04' E 113°29'4985.6
2014-Jul-24 16:33N 22°17' E 113°42'491841.7
2014-Jul-24 16:32N 23°04' E 113°29'656181681.2
2014-Jul-24 16:32N 32°01' E 120°34'6566708.9
2014-Jul-24 16:26N 23°04' E 113°29'4653.0
2014-Jul-24 15:33N 22°20' E 113°42'46270.8
2014-Jul-24 15:23N 23°04' E 113°29'0 0.0
2014-Jul-24 14:23N 23°04' E 113°29'0 0.6
2014-Jul-24 14:14N 23°04' E 113°29'0 0.1
2014-Jul-24 13:32N 23°04' E 113°29'0 0.3
2014-Jul-24 13:14N 23°04' E 113°29'648939.0
2014-Jul-24 12:32N 31°58' E 120°24'649584.5
2014-Jul-24 11:26N 23°04' E 113°29'0 0.5
2014-Jul-24 11:20N 23°04' E 113°29'6 7.3
2014-Jul-24 10:33N 23°02' E 113°23'658.8
2014-Jul-24 10:27N 23°04' E 113°29'0 5.5
2014-Jul-24 10:25N 23°04' E 113°29'3 3.8
2014-Jul-24 09:33N 23°04' E 113°25'2345.1
2014-Jul-24 09:33N 23°05' E 113°28'1 9.0
2014-Jul-24 09:27N 23°04' E 113°29'726.5
2014-Jul-24 09:12N 22°59' E 113°33'2 2.4
2014-Jul-24 08:30N 22°60' E 113°31'215.6
2014-Jul-24 08:24N 22°59' E 113°33'9796514.8
2014-Jul-24 08:15N 37°30' E 122°10'2293525.7
2014-Jul-24 08:11N 39°05' E 117°44'98543257.8
2014-Jul-24 08:10N 23°04' E 113°29'9751614.6
2014-Jul-24 07:33N 37°30' E 122°10'226270747.0
2014-Jul-24 07:33N 39°04' E 117°49'98796065.3
2014-Jul-24 07:33N 23°03' E 113°25'8177.8
2014-Jul-24 07:30N 22°59' E 113°33'5466.9
2014-Jul-24 07:29N 22°54' E 113°31'2674433.4
2014-Jul-24 07:26N 24°28' E 118°04'8771009.9
2014-Jul-24 06:34N 39°05' E 117°51'2253265.3
2014-Jul-24 06:29N 37°29' E 122°11'5 5.5
2014-Jul-24 05:33N 37°28' E 122°17'233279390.9
2014-Jul-24 05:33N 39°04' E 117°47'445266753.6
2014-Jul-24 05:33N 31°58' E 120°24'65421801.2
2014-Jul-24 05:31N 23°03' E 113°20'13464.7
2014-Jul-24 05:30N 22°59' E 113°33'9791031.4
2014-Jul-24 04:33N 37°26' E 122°16'977502507.5
2014-Jul-24 04:33N 23°04' E 113°25'924.3
2014-Jul-24 04:12N 22°59' E 113°33'4 5.5
2014-Jul-24 03:33N 23°02' E 113°31'456.8
2014-Jul-24 03:30N 22°59' E 113°33'97920603.7
2014-Jul-24 03:27N 37°26' E 122°16'9856179.1
2014-Jul-24 03:17N 22°51' E 113°34'9971361.7
2014-Jul-24 02:33N 39°04' E 117°47'32475.7
2014-Jul-24 02:33N 39°05' E 117°44'99331627.9
2014-Jul-24 02:31N 22°56' E 113°34'3106.9
2014-Jul-24 02:30N 22°59' E 113°33'97921482.6
2014-Jul-24 02:27N 37°26' E 122°16'230258.1
2014-Jul-24 01:33N 39°05' E 117°51'23027614.1
2014-Jul-24 01:33N 37°26' E 122°16'3563289.2
2014-Jul-24 01:26N 35°06' E 129°02'10917451.0
2014-Jul-24 01:18N 22°59' E 113°33'9901342.5
2014-Jul-24 00:33N 39°04' E 117°47'99015765.9
2014-Jul-24 00:30N 22°59' E 113°33'1412.1
2014-Jul-23 23:20N 23°03' E 113°18'1464.2
2014-Jul-23 23:07N 22°59' E 113°33'915.1
2014-Jul-23 22:33N 23°02' E 113°24'12119.1
2014-Jul-23 22:27N 22°53' E 113°32'1213.3
2014-Jul-23 21:33N 23°04' E 113°29'6382930.8
2014-Jul-23 21:20N 32°00' E 119°59'638810.2
2014-Jul-23 20:33N 23°04' E 113°29'63856015.1
2014-Jul-23 20:32N 31°58' E 120°02'638649.0
2014-Jul-23 19:33N 23°04' E 113°29'64025027.8
2014-Jul-23 19:32N 31°57' E 120°08'640655.8
2014-Jul-23 18:33N 23°04' E 113°29'64219586.8
2014-Jul-23 18:31N 31°57' E 120°14'6511515.6
2014-Jul-23 18:05N 22°51' E 113°34'6561234.2
2014-Jul-23 17:33N 31°59' E 120°19'64793125.3
2014-Jul-23 17:33N 23°04' E 113°29'14223.1
2014-Jul-23 17:29N 22°51' E 113°34'1414.9
2014-Jul-23 16:33N 23°04' E 113°29'651586004.4
2014-Jul-23 16:33N 32°01' E 120°25'651651.9
2014-Jul-23 15:33N 23°04' E 113°29'655262055.3
2014-Jul-23 15:33N 32°02' E 120°31'701317.7
2014-Jul-23 15:30N 31°13' E 121°30'650689.2
2014-Jul-23 14:33N 23°04' E 113°29'106984.9
2014-Jul-23 14:33N 22°56' E 113°34'65964124.8
2014-Jul-23 14:33N 31°18' E 121°34'653209.8
2014-Jul-23 14:32N 32°01' E 120°36'2089.0
2014-Jul-23 14:18N 31°57' E 120°13'64512893.0
2014-Jul-23 14:15N 22°59' E 113°33'7112.6
2014-Jul-23 14:12N 22°52' E 113°33'4 5.8
2014-Jul-23 13:33N 22°56' E 113°34'664170717.4
2014-Jul-23 13:32N 32°01' E 120°42'659791250.4
2014-Jul-23 13:32N 23°04' E 113°29'101683.2
2014-Jul-23 13:32N 22°55' E 113°27'7491.9
2014-Jul-23 13:31N 22°59' E 113°33'64830274.6
2014-Jul-23 13:30N 31°58' E 120°17'6671840.9
2014-Jul-23 13:08N 22°47' E 113°13'2339.2
2014-Jul-23 12:33N 23°04' E 113°29'649116748.1
2014-Jul-23 12:33N 31°60' E 120°21'64970769.9
2014-Jul-23 12:33N 23°04' E 113°28'101299.0
2014-Jul-23 12:32N 22°56' E 113°34'16237.7
2014-Jul-23 12:28N 22°53' E 113°17'1042.9
2014-Jul-23 12:14N 23°03' E 113°17'16184.3
2014-Jul-23 12:09N 22°47' E 113°19'6711145.7
2014-Jul-23 11:33N 32°01' E 120°26'65261765.3
2014-Jul-23 11:33N 23°04' E 113°29'6860.9
2014-Jul-23 11:32N 23°02' E 113°23'12131.1
2014-Jul-23 11:27N 22°56' E 113°34'11227.4
2014-Jul-23 11:24N 23°03' E 113°25'13269.0
2014-Jul-23 11:21N 22°51' E 113°18'1620.4
2014-Jul-23 10:33N 23°04' E 113°29'1012194.9
2014-Jul-23 10:33N 22°55' E 113°34'141315.5
2014-Jul-23 10:33N 23°03' E 113°21'661158522.8
2014-Jul-23 10:32N 32°02' E 120°31'6584826.9
2014-Jul-23 10:24N 23°03' E 113°25'4 4.7
2014-Jul-23 09:33N 23°04' E 113°29'65710603.5
2014-Jul-23 09:30N 32°01' E 120°36'6607309.8
2014-Jul-23 09:24N 23°03' E 113°25'6652545.8
2014-Jul-23 09:09N 32°01' E 120°45'4 6.6
2014-Jul-23 08:33N 31°58' E 120°47'6633419.0
2014-Jul-23 08:22N 23°03' E 113°25'5 5.6
2014-Jul-23 07:33N 23°04' E 113°30'5119.8
2014-Jul-23 07:31N 23°03' E 113°25'5 4.7
2014-Jul-23 06:33N 23°04' E 113°30'65556147.3
2014-Jul-23 06:33N 32°00' E 120°34'65824947.2
2014-Jul-23 06:31N 23°03' E 113°25'5 4.7
2014-Jul-23 05:33N 23°04' E 113°30'653336064.6
2014-Jul-23 05:33N 32°02' E 120°28'443227580.3
2014-Jul-23 05:33N 39°05' E 117°46'21199.9
2014-Jul-23 05:33N 39°05' E 117°44'98791115.1
2014-Jul-23 05:32N 23°03' E 113°25'9873615.0
2014-Jul-23 05:16N 39°05' E 117°44'0 0.0
2014-Jul-23 05:13N 39°05' E 117°44'9851498.1
2014-Jul-23 04:33N 23°04' E 113°30'986154338.0
2014-Jul-23 04:33N 39°04' E 117°51'44254890.9
2014-Jul-23 04:33N 31°60' E 120°23'4454765.2
2014-Jul-23 04:27N 39°05' E 117°44'98711462.9
2014-Jul-23 04:22N 23°03' E 113°25'1384.0
2014-Jul-23 04:12N 22°54' E 113°15'9981534.1
2014-Jul-23 03:33N 39°05' E 117°45'1997.2
2014-Jul-23 03:33N 39°04' E 117°46'985104321.9
2014-Jul-23 03:33N 23°04' E 113°30'463.3
2014-Jul-23 03:29N 23°03' E 113°25'141474.8
2014-Jul-23 03:28N 22°51' E 113°18'110715563.1
2014-Jul-23 03:24N 35°07' E 129°03'109710315.4
2014-Jul-23 03:17N 23°03' E 113°19'5 6.7
2014-Jul-23 02:33N 23°03' E 113°25'9881185394.2
2014-Jul-23 02:33N 39°04' E 117°51'986221855.6
2014-Jul-23 02:33N 23°04' E 113°30'1090230853.8
2014-Jul-23 02:33N 35°07' E 129°03'10944370.4
2014-Jul-23 02:18N 23°03' E 113°25'10941478.0
2014-Jul-23 01:33N 35°07' E 129°03'5862110465.9
2014-Jul-23 01:33N 39°04' E 117°51'985197094.4
2014-Jul-23 01:33N 23°04' E 113°30'0 4.3
2014-Jul-23 01:28N 23°04' E 113°29'499.7
2014-Jul-23 01:25N 23°03' E 113°25'64176916.8
2014-Jul-23 01:25N 31°58' E 120°03'6542601.2
2014-Jul-23 01:10N 22°45' E 113°31'1932.0
2014-Jul-23 00:33N 23°04' E 113°30'0 8.6
2014-Jul-23 00:31N 23°04' E 113°29'66025259.4
2014-Jul-23 00:29N 31°33' E 121°21'6632919.6
2014-Jul-23 00:16N 23°03' E 113°25'10931551.5
2014-Jul-22 23:33N 35°06' E 129°03'108963247.8
2014-Jul-22 23:32N 23°04' E 113°30'015.8
2014-Jul-22 23:31N 23°04' E 113°29'435.6
2014-Jul-22 23:24N 23°03' E 113°25'64466283.3
2014-Jul-22 23:23N 31°57' E 120°13'681189.4
2014-Jul-22 23:20N 31°30' E 121°26'660842.5
2014-Jul-22 22:33N 23°04' E 113°29'660237509.2
2014-Jul-22 22:33N 31°27' E 121°29'66019469.5
2014-Jul-22 22:31N 23°04' E 113°29'11597.9
2014-Jul-22 22:30N 23°03' E 113°18'1645.2
2014-Jul-22 22:09N 22°53' E 113°31'6661138.2
2014-Jul-22 21:34N 31°24' E 121°32'676270467.0
2014-Jul-22 21:33N 22°25' E 113°54'4627309.2
2014-Jul-22 21:33N 23°04' E 113°29'10137.0
2014-Jul-22 21:29N 22°55' E 113°27'10136.4
2014-Jul-22 21:25N 23°04' E 113°30'1 0.7
2014-Jul-22 20:33N 23°04' E 113°29'65654952.0
2014-Jul-22 20:32N 31°19' E 121°34'6562017.1
2014-Jul-22 20:13N 23°04' E 113°30'1 0.9
2014-Jul-22 19:33N 23°04' E 113°29'65139052.1
2014-Jul-22 19:32N 31°15' E 121°30'6513808.4
2014-Jul-22 19:22N 23°04' E 113°30'1 0.8
2014-Jul-22 18:33N 23°04' E 113°29'6464085.8
2014-Jul-22 18:24N 31°09' E 121°28'108729.6
2014-Jul-22 18:15N 32°18' E 119°50'649913.1
2014-Jul-22 17:32N 23°04' E 113°29'1 1.7
2014-Jul-22 17:10N 23°04' E 113°30'1 1.0
2014-Jul-22 16:33N 23°04' E 113°29'4929249.5
2014-Jul-22 16:33N 22°16' E 113°38'3 2.9
2014-Jul-22 15:34N 22°14' E 113°35'5012029.9
2014-Jul-22 15:33N 23°04' E 113°29'1 1.9
2014-Jul-22 15:13N 23°04' E 113°30'1 1.0
2014-Jul-22 14:33N 23°04' E 113°29'63819302.0
2014-Jul-22 14:31N 31°58' E 120°03'6782561.9
2014-Jul-22 14:15N 22°14' E 113°35'680969.2
2014-Jul-22 13:33N 31°57' E 120°07'640575602.5
2014-Jul-22 13:33N 23°04' E 113°29'6388769.6
2014-Jul-22 13:29N 32°01' E 119°58'67926846.1
2014-Jul-22 13:27N 22°14' E 113°35'681757.2
2014-Jul-22 12:33N 31°57' E 120°12'641256511.2
2014-Jul-22 12:33N 23°04' E 113°29'6399664.0
2014-Jul-22 12:29N 32°02' E 119°58'553.4
2014-Jul-22 12:24N 31°58' E 120°02'63819128.7
2014-Jul-22 12:22N 23°04' E 113°30'507479.6
2014-Jul-22 12:21N 22°14' E 113°35'683858.2
2014-Jul-22 11:33N 31°57' E 120°16'151692.9
2014-Jul-22 11:33N 32°00' E 119°59'63854691.4
2014-Jul-22 11:32N 23°04' E 113°29'63910092.0
2014-Jul-22 11:28N 31°58' E 120°06'67933495.0
2014-Jul-22 11:27N 22°14' E 113°35'501158.1
2014-Jul-22 11:25N 23°04' E 113°30'9856043.8
2014-Jul-22 11:15N 39°05' E 117°44'444640.4
2014-Jul-22 10:33N 32°00' E 120°21'441397208.7
2014-Jul-22 10:33N 39°04' E 117°50'10331859399.2
2014-Jul-22 10:33N 22°14' E 113°35'4958398.1
2014-Jul-22 10:33N 23°02' E 113°24'642577867.9
2014-Jul-22 10:33N 31°59' E 120°02'63879180.4
2014-Jul-22 10:33N 23°04' E 113°29'6415456.3
2014-Jul-22 10:26N 31°57' E 120°12'64122849.4
2014-Jul-22 10:24N 23°04' E 113°29'643766.3
2014-Jul-22 09:34N 31°57' E 120°16'443227776.2
2014-Jul-22 09:33N 39°04' E 117°51'986443533.2
2014-Jul-22 09:33N 23°04' E 113°29'65226064.1
2014-Jul-22 09:32N 32°01' E 120°25'175688.7
2014-Jul-22 09:32N 31°58' E 120°05'7910525.1
2014-Jul-22 09:31N 31°21' E 121°27'65410708.2
2014-Jul-22 09:27N 23°04' E 113°29'0 1.7
2014-Jul-22 09:11N 23°04' E 113°30'501533.7
2014-Jul-22 09:09N 22°14' E 113°35'10341737.3
2014-Jul-22 08:33N 39°04' E 117°52'441176210.3
2014-Jul-22 08:33N 32°02' E 120°29'1816229.2
2014-Jul-22 08:33N 31°57' E 120°09'7627262.2
2014-Jul-22 08:33N 31°21' E 121°27'69247491.8
2014-Jul-22 08:33N 31°59' E 120°20'648129502.5
2014-Jul-22 08:33N 23°04' E 113°29'153.3
2014-Jul-22 08:32N 23°04' E 113°30'50569.7
2014-Jul-22 08:27N 22°14' E 113°35'501277.0
2014-Jul-22 08:24N 23°04' E 113°29'9861157.7
2014-Jul-22 07:33N 39°04' E 117°49'9861774130.6
2014-Jul-22 07:33N 23°04' E 113°29'6512342417.1
2014-Jul-22 07:33N 32°01' E 120°24'98116.2
2014-Jul-22 07:33N 32°01' E 120°35'65632812.0
2014-Jul-22 07:32N 23°04' E 113°30'654112149.8
2014-Jul-22 07:32N 31°21' E 121°27'6918429.1
2014-Jul-22 07:27N 22°14' E 113°35'501286.2
2014-Jul-22 07:24N 23°04' E 113°29'654768.4
2014-Jul-22 06:33N 32°02' E 120°29'694131433.8
2014-Jul-22 06:33N 22°14' E 113°35'507839.1
2014-Jul-22 06:33N 23°04' E 113°29'161.3
2014-Jul-22 06:32N 23°04' E 113°30'98553753.6
2014-Jul-22 06:31N 39°05' E 117°44'44811615.0
2014-Jul-22 06:29N 32°00' E 120°40'6071445.8
2014-Jul-22 06:03N 23°04' E 115°20'6051210.0
2014-Jul-22 05:33N 32°01' E 120°34'107476.3
2014-Jul-22 05:33N 32°01' E 120°46'446321332.4
2014-Jul-22 05:33N 39°03' E 117°49'1032218635.9
2014-Jul-22 05:33N 22°14' E 113°35'5013869.1
2014-Jul-22 05:33N 23°04' E 113°29'4139.8
2014-Jul-22 05:31N 23°04' E 113°25'431.3
2014-Jul-22 05:23N 23°04' E 113°30'1 0.8
2014-Jul-22 04:33N 23°04' E 113°29'9863548895.8
2014-Jul-22 04:33N 39°04' E 117°52'1033132869.1
2014-Jul-22 04:33N 22°14' E 113°35'69762714.3
2014-Jul-22 04:32N 32°00' E 120°39'11140.9
2014-Jul-22 04:28N 31°58' E 120°51'662596126.4
2014-Jul-22 04:28N 23°04' E 113°30'0 8.5
2014-Jul-22 04:24N 23°04' E 113°29'6382990.6
2014-Jul-22 04:12N 31°58' E 120°03'440690.8
2014-Jul-22 03:33N 39°04' E 117°48'1033123965.8
2014-Jul-22 03:33N 22°14' E 113°35'5018032.0
2014-Jul-22 03:33N 23°04' E 113°29'6395961.2
2014-Jul-22 03:26N 31°58' E 120°06'34254.1
2014-Jul-22 03:18N 32°01' E 120°46'6628135.0
2014-Jul-22 03:13N 23°04' E 113°30'028.0
2014-Jul-22 03:12N 23°04' E 113°29'63819462.9
2014-Jul-22 03:10N 31°58' E 120°03'6411031.4
2014-Jul-22 02:33N 23°03' E 113°25'643579074.9
2014-Jul-22 02:33N 31°57' E 120°10'6401152834.1
2014-Jul-22 02:33N 23°04' E 113°29'5016394.7
2014-Jul-22 02:33N 22°14' E 113°35'51793.0
2014-Jul-22 02:29N 23°03' E 113°18'10245.4
2014-Jul-22 02:27N 23°04' E 113°29'0 0.1
2014-Jul-22 01:33N 23°04' E 113°29'642177825.1
2014-Jul-22 01:33N 31°57' E 120°14'643289227.8
2014-Jul-22 01:33N 23°05' E 113°27'5115312.3
2014-Jul-22 01:33N 22°14' E 113°35'69111200.9
2014-Jul-22 01:29N 31°21' E 121°27'6542239.4
2014-Jul-22 01:12N 23°04' E 113°29'6451009.1
2014-Jul-22 00:33N 31°58' E 120°18'645211150.1
2014-Jul-22 00:33N 23°04' E 113°28'1 7.7
2014-Jul-22 00:27N 23°04' E 113°29'1 3.3
2014-Jul-22 00:16N 23°04' E 113°30'50396.5
2014-Jul-22 00:09N 22°14' E 113°35'4983.6
2014-Jul-21 23:33N 23°02' E 113°22'49217.1
2014-Jul-21 23:20N 22°14' E 113°35'50586.6
2014-Jul-21 23:15N 23°04' E 113°29'6567067.2
2014-Jul-21 23:09N 31°47' E 120°55'2948.1
2014-Jul-21 22:33N 31°58' E 120°25'292634.0
2014-Jul-21 22:33N 31°47' E 120°55'69219455.7
2014-Jul-21 22:31N 22°16' E 113°37'49729.7
2014-Jul-21 22:27N 23°04' E 113°29'1 0.6
2014-Jul-21 21:32N 23°04' E 113°30'65529869.3
2014-Jul-21 21:31N 31°47' E 120°55'6569634.0
2014-Jul-21 21:27N 23°04' E 113°29'656670.5
2014-Jul-21 20:28N 31°47' E 120°55'6763997.4
2014-Jul-21 20:18N 22°24' E 113°54'676173888.2
2014-Jul-21 20:18N 31°47' E 120°55'6562622.7
2014-Jul-21 20:03N 23°04' E 113°29'6561326.1
2014-Jul-21 19:33N 31°47' E 120°55'  

Dump ship's entire track history